Wetterdaten: Mittwoch, 04.02.2015
Datum Zeit Temp. Aussen +5cm Feuchte Auss Luftdruck Regen Sonnenschein Regendauer Solar Windben
04.02.2015 00:00 -0,3 C -1,1 C 95 % 1008,9 hPa 0,0 l/m 0 min 0 min 0 W/m 10,5 km/h (2 Bft)
04.02.2015 00:02 -0,3 C -1,1 C 95 % 1008,9 hPa 0,0 l/m 0 min 0 min 0 W/m 10,5 km/h (2 Bft)
04.02.2015 00:05 -0,2 C -1,1 C 95 % 1008,9 hPa 0,0 l/m 0 min 0 min 0 W/m 12,6 km/h (3 Bft)
04.02.2015 00:06 -0,2 C -1,1 C 95 % 1008,9 hPa 0,0 l/m 0 min 0 min 0 W/m 12,6 km/h (3 Bft)
04.02.2015 00:08 -0,2 C -1,1 C 95 % 1008,9 hPa 0,0 l/m 0 min 0 min 0 W/m 12,6 km/h (3 Bft)
04.02.2015 00:10 -0,2 C -1,1 C 95 % 1009,0 hPa 0,0 l/m 0 min 0 min 0 W/m 10,5 km/h (2 Bft)
04.02.2015 00:12 -0,2 C -1,1 C 95 % 1009,0 hPa 0,0 l/m 0 min 0 min 0 W/m 10,5 km/h (2 Bft)
04.02.2015 00:14 -0,2 C -1,1 C 95 % 1009,1 hPa 0,0 l/m 0 min 0 min 0 W/m 12,6 km/h (3 Bft)
04.02.2015 00:16 -0,2 C -1,1 C 95 % 1009,1 hPa 0,0 l/m 0 min 0 min 0 W/m 12,6 km/h (3 Bft)
04.02.2015 00:18 -0,2 C -1,1 C 94 % 1009,1 hPa 0,0 l/m 0 min 0 min 0 W/m 12,6 km/h (3 Bft)
04.02.2015 00:20 -0,2 C -1,1 C 94 % 1009,2 hPa 0,0 l/m 0 min 0 min 0 W/m 10,5 km/h (2 Bft)
04.02.2015 00:22 -0,1 C -1,1 C 94 % 1009,2 hPa 0,0 l/m 0 min 0 min 0 W/m 10,5 km/h (2 Bft)
04.02.2015 00:24 -0,1 C -1,1 C 94 % 1009,2 hPa 0,0 l/m 0 min 0 min 0 W/m 12,6 km/h (3 Bft)
04.02.2015 00:26 -0,1 C -1,1 C 94 % 1009,2 hPa 0,0 l/m 0 min 0 min 0 W/m 10,5 km/h (2 Bft)
04.02.2015 00:28 -0,1 C -1,1 C 94 % 1009,2 hPa 0,0 l/m 0 min 0 min 0 W/m 10,5 km/h (2 Bft)
04.02.2015 00:30 -0,1 C -1,1 C 94 % 1009,3 hPa 0,0 l/m 0 min 0 min 0 W/m 10,5 km/h (2 Bft)
04.02.2015 00:32 -0,1 C -1,1 C 94 % 1009,3 hPa 0,0 l/m 0 min 0 min 0 W/m 14,6 km/h (3 Bft)
04.02.2015 00:34 -0,1 C -0,6 C 94 % 1009,3 hPa 0,0 l/m 0 min 0 min 0 W/m 12,6 km/h (3 Bft)
04.02.2015 00:36 -0,1 C -0,6 C 94 % 1009,3 hPa 0,0 l/m 0 min 0 min 0 W/m 14,6 km/h (3 Bft)
04.02.2015 00:38 0,0 C -0,6 C 93 % 1009,4 hPa 0,0 l/m 0 min 0 min 0 W/m 10,5 km/h (2 Bft)
04.02.2015 00:40 0,0 C -0,6 C 93 % 1009,3 hPa 0,0 l/m 0 min 0 min 0 W/m 12,6 km/h (3 Bft)
04.02.2015 00:42 0,0 C -0,6 C 93 % 1009,4 hPa 0,0 l/m 0 min 0 min 0 W/m 12,6 km/h (3 Bft)
04.02.2015 00:44 0,1 C -0,6 C 93 % 1009,4 hPa 0,0 l/m 0 min 0 min 0 W/m 18,8 km/h (3 Bft)
04.02.2015 00:46 0,1 C -0,6 C 93 % 1009,4 hPa 0,0 l/m 0 min 0 min 0 W/m 16,7 km/h (3 Bft)
04.02.2015 00:48 0,1 C -0,6 C 93 % 1009,4 hPa 0,0 l/m 0 min 0 min 0 W/m 12,6 km/h (3 Bft)
04.02.2015 00:50 0,1 C -0,6 C 93 % 1009,4 hPa 0,0 l/m 0 min 0 min 0 W/m 14,6 km/h (3 Bft)
04.02.2015 00:52 0,1 C -0,6 C 93 % 1009,5 hPa 0,0 l/m 0 min 0 min 0 W/m 10,5 km/h (2 Bft)
04.02.2015 00:54 0,2 C -0,6 C 92 % 1009,5 hPa 0,0 l/m 0 min 0 min 0 W/m 12,6 km/h (3 Bft)
04.02.2015 00:56 0,2 C -0,6 C 92 % 1009,5 hPa 0,0 l/m 0 min 0 min 0 W/m 8,4 km/h (2 Bft)
04.02.2015 00:58 0,2 C -0,6 C 93 % 1009,5 hPa 0,0 l/m 0 min 0 min 0 W/m 8,4 km/h (2 Bft)
04.02.2015 01:00 0,2 C -0,6 C 92 % 1009,5 hPa 0,0 l/m 0 min 0 min 0 W/m 6,3 km/h (2 Bft)
04.02.2015 01:02 0,2 C -0,6 C 92 % 1009,5 hPa 0,0 l/m 0 min 0 min 0 W/m 10,5 km/h (2 Bft)
04.02.2015 01:04 0,2 C -0,6 C 92 % 1009,5 hPa 0,0 l/m 0 min 0 min 0 W/m 10,5 km/h (2 Bft)
04.02.2015 01:06 0,2 C -0,6 C 92 % 1009,5 hPa 0,0 l/m 0 min 0 min 0 W/m 8,4 km/h (2 Bft)
04.02.2015 01:08 0,2 C -0,6 C 92 % 1009,5 hPa 0,0 l/m 0 min 0 min 0 W/m 10,5 km/h (2 Bft)
04.02.2015 01:10 0,2 C -0,6 C 92 % 1009,6 hPa 0,0 l/m 0 min 0 min 0 W/m 8,4 km/h (2 Bft)
04.02.2015 01:12 0,2 C -0,6 C 92 % 1009,6 hPa 0,0 l/m 0 min 0 min 0 W/m 8,4 km/h (2 Bft)
04.02.2015 01:14 0,2 C -0,6 C 92 % 1009,5 hPa 0,0 l/m 0 min 0 min 0 W/m 8,4 km/h (2 Bft)
04.02.2015 01:16 0,2 C -0,6 C 92 % 1009,5 hPa 0,0 l/m 0 min 0 min 0 W/m 8,4 km/h (2 Bft)
04.02.2015 01:18 0,2 C -0,6 C 92 % 1009,5 hPa 0,0 l/m 0 min 0 min 0 W/m 6,3 km/h (2 Bft)
04.02.2015 01:20 0,2 C -0,6 C 92 % 1009,6 hPa 0,0 l/m 0 min 0 min 0 W/m 10,5 km/h (2 Bft)
04.02.2015 01:22 0,2 C -0,6 C 92 % 1009,5 hPa 0,0 l/m 0 min 0 min 0 W/m 8,4 km/h (2 Bft)
04.02.2015 01:24 0,2 C -0,6 C 92 % 1009,5 hPa 0,0 l/m 0 min 0 min 0 W/m 16,7 km/h (3 Bft)
04.02.2015 01:26 0,2 C -0,6 C 92 % 1009,6 hPa 0,0 l/m 0 min 0 min 0 W/m 18,8 km/h (3 Bft)
04.02.2015 01:28 0,2 C -0,6 C 92 % 1009,6 hPa 0,0 l/m 0 min 0 min 0 W/m 10,5 km/h (2 Bft)
04.02.2015 01:30 0,2 C -0,6 C 92 % 1009,6 hPa 0,0 l/m 0 min 0 min 0 W/m 8,4 km/h (2 Bft)
04.02.2015 01:32 0,2 C -1,1 C 92 % 1009,6 hPa 0,0 l/m 0 min 0 min 0 W/m 8,4 km/h (2 Bft)
04.02.2015 01:34 0,2 C -1,1 C 92 % 1009,5 hPa 0,0 l/m 0 min 0 min 0 W/m 10,5 km/h (2 Bft)
04.02.2015 01:36 0,2 C -1,1 C 92 % 1009,5 hPa 0,0 l/m 0 min 0 min 0 W/m 8,4 km/h (2 Bft)
04.02.2015 01:38 0,2 C -1,1 C 92 % 1009,5 hPa 0,0 l/m 0 min 0 min 0 W/m 6,3 km/h (2 Bft)
04.02.2015 01:40 0,2 C -1,7 C 92 % 1009,5 hPa 0,0 l/m 0 min 0 min 0 W/m 10,5 km/h (2 Bft)
04.02.2015 01:42 0,2 C -1,7 C 92 % 1009,5 hPa 0,0 l/m 0 min 0 min 0 W/m 8,4 km/h (2 Bft)
04.02.2015 01:44 0,2 C -1,7 C 92 % 1009,6 hPa 0,0 l/m 0 min 0 min 0 W/m 6,3 km/h (2 Bft)
04.02.2015 01:46 0,1 C -1,7 C 92 % 1009,6 hPa 0,0 l/m 0 min 0 min 0 W/m 6,3 km/h (2 Bft)
04.02.2015 01:48 0,1 C -1,7 C 92 % 1009,6 hPa 0,0 l/m 0 min 0 min 0 W/m 8,4 km/h (2 Bft)
04.02.2015 01:50 0,1 C -1,7 C 92 % 1009,7 hPa 0,0 l/m 0 min 0 min 0 W/m 10,5 km/h (2 Bft)
04.02.2015 01:52 0,0 C -1,7 C 92 % 1009,6 hPa 0,0 l/m 0 min 0 min 0 W/m 10,5 km/h (2 Bft)
04.02.2015 01:54 -0,1 C -1,7 C 92 % 1009,7 hPa 0,0 l/m 0 min 0 min 0 W/m 8,4 km/h (2 Bft)
04.02.2015 01:56 -0,1 C -1,7 C 92 % 1009,7 hPa 0,0 l/m 0 min 0 min 0 W/m 12,6 km/h (3 Bft)
04.02.2015 01:58 -0,1 C -1,7 C 92 % 1009,8 hPa 0,0 l/m 0 min 0 min 0 W/m 12,6 km/h (3 Bft)
04.02.2015 02:00 -0,1 C -1,7 C 92 % 1009,9 hPa 0,0 l/m 0 min 0 min 0 W/m 12,6 km/h (3 Bft)
04.02.2015 02:02 -0,2 C -1,7 C 92 % 1009,9 hPa 0,0 l/m 0 min 0 min 0 W/m 10,5 km/h (2 Bft)
04.02.2015 02:04 -0,2 C -1,7 C 92 % 1009,9 hPa 0,0 l/m 0 min 0 min 0 W/m 10,5 km/h (2 Bft)
04.02.2015 02:06 -0,2 C -1,7 C 92 % 1009,9 hPa 0,0 l/m 0 min 0 min 0 W/m 10,5 km/h (2 Bft)
04.02.2015 02:08 -0,3 C -1,7 C 92 % 1009,9 hPa 0,0 l/m 0 min 0 min 0 W/m 10,5 km/h (2 Bft)
04.02.2015 02:10 -0,3 C -1,7 C 92 % 1009,9 hPa 0,0 l/m 0 min 0 min 0 W/m 10,5 km/h (2 Bft)
04.02.2015 02:12 -0,3 C -1,7 C 92 % 1009,9 hPa 0,0 l/m 0 min 0 min 0 W/m 8,4 km/h (2 Bft)
04.02.2015 02:14 -0,4 C -1,7 C 92 % 1009,9 hPa 0,0 l/m 0 min 0 min 0 W/m 8,4 km/h (2 Bft)
04.02.2015 02:16 -0,4 C -1,7 C 92 % 1009,9 hPa 0,0 l/m 0 min 0 min 0 W/m 10,5 km/h (2 Bft)
04.02.2015 02:18 -0,4 C -1,7 C 92 % 1010,0 hPa 0,0 l/m 0 min 0 min 0 W/m 8,4 km/h (2 Bft)
04.02.2015 02:20 -0,4 C -1,7 C 92 % 1010,0 hPa 0,0 l/m 0 min 0 min 0 W/m 8,4 km/h (2 Bft)
04.02.2015 02:22 -0,5 C -1,7 C 92 % 1010,0 hPa 0,0 l/m 0 min 0 min 0 W/m 8,4 km/h (2 Bft)
04.02.2015 02:24 -0,5 C -1,7 C 92 % 1010,1 hPa 0,0 l/m 0 min 0 min 0 W/m 8,4 km/h (2 Bft)
04.02.2015 02:26 -0,5 C -1,7 C 92 % 1010,0 hPa 0,0 l/m 0 min 0 min 0 W/m 4,2 km/h (1 Bft)
04.02.2015 02:28 -0,6 C -2,2 C 92 % 1010,1 hPa 0,0 l/m 0 min 0 min 0 W/m 6,3 km/h (2 Bft)
04.02.2015 02:30 -0,6 C -2,2 C 92 % 1010,0 hPa 0,0 l/m 0 min 0 min 0 W/m 8,4 km/h (2 Bft)
04.02.2015 02:32 -0,6 C -2,2 C 92 % 1010,1 hPa 0,0 l/m 0 min 0 min 0 W/m 6,3 km/h (2 Bft)
04.02.2015 02:34 -0,6 C -2,2 C 92 % 1010,1 hPa 0,0 l/m 0 min 0 min 0 W/m 10,5 km/h (2 Bft)
04.02.2015 02:36 -0,6 C -2,2 C 92 % 1010,1 hPa 0,0 l/m 0 min 0 min 0 W/m 6,3 km/h (2 Bft)
04.02.2015 02:38 -0,6 C -2,2 C 92 % 1010,1 hPa 0,0 l/m 0 min 0 min 0 W/m 6,3 km/h (2 Bft)
04.02.2015 02:40 -0,7 C -2,2 C 92 % 1010,2 hPa 0,0 l/m 0 min 0 min 0 W/m 8,4 km/h (2 Bft)
04.02.2015 02:42 -0,7 C -2,2 C 92 % 1010,2 hPa 0,0 l/m 0 min 0 min 0 W/m 8,4 km/h (2 Bft)
04.02.2015 02:44 -0,7 C -2,2 C 92 % 1010,2 hPa 0,0 l/m 0 min 0 min 0 W/m 8,4 km/h (2 Bft)
04.02.2015 02:46 -0,7 C -2,2 C 92 % 1010,2 hPa 0,0 l/m 0 min 0 min 0 W/m 8,4 km/h (2 Bft)
04.02.2015 02:48 -0,8 C -2,2 C 92 % 1010,2 hPa 0,0 l/m 0 min 0 min 0 W/m 6,3 km/h (2 Bft)
04.02.2015 02:50 -0,8 C -2,2 C 92 % 1010,3 hPa 0,0 l/m 0 min 0 min 0 W/m 8,4 km/h (2 Bft)
04.02.2015 02:52 -0,8 C -2,2 C 92 % 1010,3 hPa 0,0 l/m 0 min 0 min 0 W/m 6,3 km/h (2 Bft)
04.02.2015 02:54 -0,8 C -2,2 C 92 % 1010,3 hPa 0,0 l/m 0 min 0 min 0 W/m 6,3 km/h (2 Bft)
04.02.2015 02:56 -0,8 C -2,2 C 92 % 1010,3 hPa 0,0 l/m 0 min 0 min 0 W/m 6,3 km/h (2 Bft)
04.02.2015 02:58 -0,9 C -2,2 C 92 % 1010,4 hPa 0,0 l/m 0 min 0 min 0 W/m 8,4 km/h (2 Bft)
04.02.2015 03:00 -0,9 C -2,2 C 93 % 1010,4 hPa 0,0 l/m 0 min 0 min 0 W/m 8,4 km/h (2 Bft)
04.02.2015 03:02 -0,9 C -2,2 C 93 % 1010,4 hPa 0,0 l/m 0 min 0 min 0 W/m 8,4 km/h (2 Bft)
04.02.2015 03:04 -0,9 C -2,8 C 93 % 1010,4 hPa 0,0 l/m 0 min 0 min 0 W/m 8,4 km/h (2 Bft)
04.02.2015 03:06 -0,9 C -2,8 C 93 % 1010,4 hPa 0,0 l/m 0 min 0 min 0 W/m 6,3 km/h (2 Bft)
04.02.2015 03:08 -1,0 C -2,8 C 93 % 1010,4 hPa 0,0 l/m 0 min 0 min 0 W/m 6,3 km/h (2 Bft)
04.02.2015 03:10 -1,0 C -2,8 C 92 % 1010,5 hPa 0,0 l/m 0 min 0 min 0 W/m 6,3 km/h (2 Bft)
04.02.2015 03:12 -1,0 C -2,8 C 92 % 1010,4 hPa 0,0 l/m 0 min 0 min 0 W/m 6,3 km/h (2 Bft)
04.02.2015 03:14 -1,1 C -2,8 C 92 % 1010,5 hPa 0,0 l/m 0 min 0 min 0 W/m 6,3 km/h (2 Bft)
04.02.2015 03:16 -1,1 C -2,8 C 92 % 1010,5 hPa 0,0 l/m 0 min 0 min 0 W/m 6,3 km/h (2 Bft)
04.02.2015 03:18 -1,1 C -2,8 C 92 % 1010,5 hPa 0,0 l/m 0 min 0 min 0 W/m 6,3 km/h (2 Bft)
04.02.2015 03:20 -1,1 C -2,8 C 93 % 1010,5 hPa 0,0 l/m 0 min 0 min 0 W/m 6,3 km/h (2 Bft)
04.02.2015 03:22 -1,2 C -2,8 C 93 % 1010,5 hPa 0,0 l/m 0 min 0 min 0 W/m 6,3 km/h (2 Bft)
04.02.2015 03:24 -1,2 C -2,8 C 93 % 1010,5 hPa 0,0 l/m 0 min 0 min 0 W/m 6,3 km/h (2 Bft)
04.02.2015 03:26 -1,2 C -2,8 C 93 % 1010,5 hPa 0,0 l/m 0 min 0 min 0 W/m 6,3 km/h (2 Bft)
04.02.2015 03:28 -1,2 C -2,8 C 93 % 1010,6 hPa 0,0 l/m 0 min 0 min 0 W/m 4,2 km/h (1 Bft)
04.02.2015 03:30 -1,2 C -2,8 C 93 % 1010,6 hPa 0,0 l/m 0 min 0 min 0 W/m 6,3 km/h (2 Bft)
04.02.2015 03:32 -1,3 C -2,8 C 93 % 1010,6 hPa 0,0 l/m 0 min 0 min 0 W/m 6,3 km/h (2 Bft)
04.02.2015 03:34 -1,3 C -2,8 C 93 % 1010,7 hPa 0,0 l/m 0 min 0 min 0 W/m 4,2 km/h (1 Bft)
04.02.2015 03:36 -1,3 C -2,8 C 93 % 1010,6 hPa 0,0 l/m 0 min 0 min 0 W/m 4,2 km/h (1 Bft)
04.02.2015 03:38 -1,3 C -2,8 C 93 % 1010,6 hPa 0,0 l/m 0 min 0 min 0 W/m 4,2 km/h (1 Bft)
04.02.2015 03:40 -1,3 C -2,8 C 93 % 1010,6 hPa 0,0 l/m 0 min 0 min 0 W/m 6,3 km/h (2 Bft)
04.02.2015 03:42 -1,3 C -2,8 C 93 % 1010,7 hPa 0,0 l/m 0 min 0 min 0 W/m 4,2 km/h (1 Bft)
04.02.2015 03:44 -1,4 C -2,8 C 93 % 1010,7 hPa 0,0 l/m 0 min 0 min 0 W/m 4,2 km/h (1 Bft)
04.02.2015 03:46 -1,4 C -2,8 C 93 % 1010,6 hPa 0,0 l/m 0 min 0 min 0 W/m 6,3 km/h (2 Bft)
04.02.2015 03:48 -1,4 C -2,8 C 93 % 1010,6 hPa 0,0 l/m 0 min 0 min 0 W/m 8,4 km/h (2 Bft)
04.02.2015 03:50 -1,4 C -2,2 C 93 % 1010,7 hPa 0,0 l/m 0 min 0 min 0 W/m 6,3 km/h (2 Bft)
04.02.2015 03:52 -1,4 C -2,2 C 93 % 1010,7 hPa 0,0 l/m 0 min 0 min 0 W/m 6,3 km/h (2 Bft)
04.02.2015 03:54 -1,4 C -2,2 C 93 % 1010,6 hPa 0,0 l/m 0 min 0 min 0 W/m 8,4 km/h (2 Bft)
04.02.2015 03:56 -1,4 C -2,2 C 93 % 1010,7 hPa 0,0 l/m 0 min 0 min 0 W/m 8,4 km/h (2 Bft)
04.02.2015 03:58 -1,4 C -2,2 C 93 % 1010,6 hPa 0,0 l/m 0 min 0 min 0 W/m 8,4 km/h (2 Bft)
04.02.2015 04:00 -1,4 C -2,2 C 93 % 1010,7 hPa 0,0 l/m 0 min 0 min 0 W/m 8,4 km/h (2 Bft)
04.02.2015 04:02 -1,3 C -2,2 C 93 % 1010,7 hPa 0,0 l/m 0 min 0 min 0 W/m 10,5 km/h (2 Bft)
04.02.2015 04:04 -1,3 C -2,2 C 93 % 1010,7 hPa 0,0 l/m 0 min 0 min 0 W/m 6,3 km/h (2 Bft)
04.02.2015 04:06 -1,3 C -2,2 C 93 % 1010,8 hPa 0,0 l/m 0 min 0 min 0 W/m 6,3 km/h (2 Bft)
04.02.2015 04:08 -1,3 C -2,2 C 93 % 1010,8 hPa 0,0 l/m 0 min 0 min 0 W/m 6,3 km/h (2 Bft)
04.02.2015 04:10 -1,3 C -2,2 C 93 % 1010,8 hPa 0,0 l/m 0 min 0 min 0 W/m 8,4 km/h (2 Bft)
04.02.2015 04:12 -1,3 C -2,2 C 93 % 1010,8 hPa 0,0 l/m 0 min 0 min 0 W/m 6,3 km/h (2 Bft)
04.02.2015 04:14 -1,3 C -2,2 C 93 % 1010,8 hPa 0,0 l/m 0 min 0 min 0 W/m 4,2 km/h (1 Bft)
04.02.2015 04:16 -1,3 C -2,2 C 93 % 1010,8 hPa 0,0 l/m 0 min 0 min 0 W/m 6,3 km/h (2 Bft)
04.02.2015 04:18 -1,3 C -2,2 C 93 % 1010,8 hPa 0,0 l/m 0 min 0 min 0 W/m 6,3 km/h (2 Bft)
04.02.2015 04:20 -1,3 C -2,2 C 93 % 1010,8 hPa 0,0 l/m 0 min 0 min 0 W/m 6,3 km/h (2 Bft)
04.02.2015 04:22 -1,3 C -2,2 C 94 % 1010,9 hPa 0,0 l/m 0 min 0 min 0 W/m 6,3 km/h (2 Bft)
04.02.2015 04:24 -1,3 C -2,2 C 94 % 1010,9 hPa 0,0 l/m 0 min 0 min 0 W/m 8,4 km/h (2 Bft)
04.02.2015 04:26 -1,3 C -2,2 C 94 % 1010,8 hPa 0,0 l/m 0 min 0 min 0 W/m 8,4 km/h (2 Bft)
04.02.2015 04:28 -1,3 C -2,2 C 94 % 1010,8 hPa 0,0 l/m 0 min 0 min 0 W/m 8,4 km/h (2 Bft)
04.02.2015 04:30 -1,2 C -2,2 C 94 % 1010,8 hPa 0,0 l/m 0 min 0 min 0 W/m 6,3 km/h (2 Bft)
04.02.2015 04:32 -1,3 C -2,2 C 94 % 1010,9 hPa 0,0 l/m 0 min 0 min 0 W/m 6,3 km/h (2 Bft)
04.02.2015 04:34 -1,3 C -2,2 C 94 % 1010,9 hPa 0,0 l/m 0 min 0 min 0 W/m 4,2 km/h (1 Bft)
04.02.2015 04:36 -1,3 C -2,2 C 94 % 1010,9 hPa 0,0 l/m 0 min 0 min 0 W/m 4,2 km/h (1 Bft)
04.02.2015 04:38 -1,3 C -2,2 C 94 % 1010,9 hPa 0,0 l/m 0 min 0 min 0 W/m 6,3 km/h (2 Bft)
04.02.2015 04:40 -1,3 C -2,2 C 94 % 1010,8 hPa 0,0 l/m 0 min 0 min 0 W/m 4,2 km/h (1 Bft)
04.02.2015 04:42 -1,2 C -2,2 C 94 % 1010,8 hPa 0,0 l/m 0 min 0 min 0 W/m 4,2 km/h (1 Bft)
04.02.2015 04:44 -1,2 C -2,2 C 94 % 1010,8 hPa 0,0 l/m 0 min 0 min 0 W/m 4,2 km/h (1 Bft)
04.02.2015 04:46 -1,3 C -2,2 C 94 % 1010,9 hPa 0,0 l/m 0 min 0 min 0 W/m 4,2 km/h (1 Bft)
04.02.2015 04:48 -1,3 C -2,2 C 94 % 1010,8 hPa 0,0 l/m 0 min 0 min 0 W/m 4,2 km/h (1 Bft)
04.02.2015 04:50 -1,3 C -2,2 C 94 % 1010,8 hPa 0,0 l/m 0 min 0 min 0 W/m 2,1 km/h (1 Bft)
04.02.2015 04:52 -1,3 C -2,2 C 94 % 1010,9 hPa 0,0 l/m 0 min 0 min 0 W/m 4,2 km/h (1 Bft)
04.02.2015 04:54 -1,3 C -2,2 C 94 % 1011,0 hPa 0,0 l/m 0 min 0 min 0 W/m 4,2 km/h (1 Bft)
04.02.2015 04:56 -1,3 C -2,2 C 94 % 1011,0 hPa 0,0 l/m 0 min 0 min 0 W/m 4,2 km/h (1 Bft)
04.02.2015 04:58 -1,3 C -2,2 C 94 % 1011,0 hPa 0,0 l/m 0 min 0 min 0 W/m 2,1 km/h (1 Bft)
04.02.2015 05:00 -1,3 C -2,2 C 94 % 1011,0 hPa 0,0 l/m 0 min 0 min 0 W/m 2,1 km/h (1 Bft)
04.02.2015 05:02 -1,3 C -2,8 C 94 % 1011,0 hPa 0,0 l/m 0 min 0 min 0 W/m 2,1 km/h (1 Bft)
04.02.2015 05:04 -1,3 C -2,8 C 94 % 1011,0 hPa 0,0 l/m 0 min 0 min 0 W/m 2,1 km/h (1 Bft)
04.02.2015 05:06 -1,3 C -2,8 C 94 % 1011,0 hPa 0,0 l/m 0 min 0 min 0 W/m 2,1 km/h (1 Bft)
04.02.2015 05:08 -1,3 C -2,8 C 94 % 1011,0 hPa 0,0 l/m 0 min 0 min 0 W/m 2,1 km/h (1 Bft)
04.02.2015 05:10 -1,3 C -2,8 C 94 % 1011,1 hPa 0,0 l/m 0 min 0 min 0 W/m 4,2 km/h (1 Bft)
04.02.2015 05:12 -1,3 C -2,8 C 94 % 1011,0 hPa 0,0 l/m 0 min 0 min 0 W/m 2,1 km/h (1 Bft)
04.02.2015 05:14 -1,3 C -2,8 C 94 % 1011,0 hPa 0,0 l/m 0 min 0 min 0 W/m 2,1 km/h (1 Bft)
04.02.2015 05:16 -1,4 C -2,8 C 94 % 1011,0 hPa 0,0 l/m 0 min 0 min 0 W/m 4,2 km/h (1 Bft)
04.02.2015 05:18 -1,4 C -2,8 C 94 % 1011,0 hPa 0,0 l/m 0 min 0 min 0 W/m 2,1 km/h (1 Bft)
04.02.2015 05:20 -1,4 C -2,8 C 94 % 1011,0 hPa 0,0 l/m 0 min 0 min 0 W/m 4,2 km/h (1 Bft)
04.02.2015 05:22 -1,4 C -2,8 C 94 % 1011,0 hPa 0,0 l/m 0 min 0 min 0 W/m 6,3 km/h (2 Bft)
04.02.2015 05:24 -1,4 C -2,8 C 94 % 1011,0 hPa 0,0 l/m 0 min 0 min 0 W/m 4,2 km/h (1 Bft)
04.02.2015 05:26 -1,4 C -2,8 C 94 % 1011,0 hPa 0,0 l/m 0 min 0 min 0 W/m 4,2 km/h (1 Bft)
04.02.2015 05:28 -1,4 C -2,8 C 94 % 1010,9 hPa 0,0 l/m 0 min 0 min 0 W/m 6,3 km/h (2 Bft)
04.02.2015 05:30 -1,4 C -2,8 C 94 % 1011,0 hPa 0,0 l/m 0 min 0 min 0 W/m 4,2 km/h (1 Bft)
04.02.2015 05:32 -1,4 C -2,8 C 94 % 1011,0 hPa 0,0 l/m 0 min 0 min 0 W/m 6,3 km/h (2 Bft)
04.02.2015 05:34 -1,4 C -2,8 C 94 % 1011,0 hPa 0,0 l/m 0 min 0 min 0 W/m 4,2 km/h (1 Bft)
04.02.2015 05:36 -1,5 C -2,8 C 94 % 1011,0 hPa 0,0 l/m 0 min 0 min 0 W/m 6,3 km/h (2 Bft)
04.02.2015 05:38 -1,5 C -2,8 C 94 % 1011,0 hPa 0,0 l/m 0 min 0 min 0 W/m 4,2 km/h (1 Bft)
04.02.2015 05:40 -1,5 C -3,3 C 94 % 1011,0 hPa 0,0 l/m 0 min 0 min 0 W/m 4,2 km/h (1 Bft)
04.02.2015 05:42 -1,5 C -3,3 C 94 % 1011,0 hPa 0,0 l/m 0 min 0 min 0 W/m 2,1 km/h (1 Bft)
04.02.2015 05:44 -1,6 C -3,3 C 94 % 1011,0 hPa 0,0 l/m 0 min 0 min 0 W/m 4,2 km/h (1 Bft)
04.02.2015 05:46 -1,6 C -3,3 C 94 % 1011,0 hPa 0,0 l/m 0 min 0 min 0 W/m 6,3 km/h (2 Bft)
04.02.2015 05:48 -1,6 C -3,3 C 94 % 1011,0 hPa 0,0 l/m 0 min 0 min 0 W/m 4,2 km/h (1 Bft)
04.02.2015 05:50 -1,6 C -3,3 C 94 % 1011,0 hPa 0,0 l/m 0 min 0 min 0 W/m 4,2 km/h (1 Bft)
04.02.2015 05:52 -1,6 C -3,3 C 94 % 1011,0 hPa 0,0 l/m 0 min 0 min 0 W/m 2,1 km/h (1 Bft)
04.02.2015 05:54 -1,6 C -3,3 C 94 % 1011,1 hPa 0,0 l/m 0 min 0 min 0 W/m 4,2 km/h (1 Bft)
04.02.2015 05:56 -1,7 C -3,9 C 94 % 1011,1 hPa 0,0 l/m 0 min 0 min 0 W/m 2,1 km/h (1 Bft)
04.02.2015 05:58 -1,7 C -3,9 C 94 % 1011,1 hPa 0,0 l/m 0 min 0 min 0 W/m 4,2 km/h (1 Bft)
04.02.2015 06:00 -1,7 C -3,9 C 94 % 1011,1 hPa 0,0 l/m 0 min 0 min 0 W/m 2,1 km/h (1 Bft)
04.02.2015 06:02 -1,7 C -3,9 C 94 % 1011,1 hPa 0,0 l/m 0 min 0 min 0 W/m 2,1 km/h (1 Bft)
04.02.2015 06:05 -1,8 C -3,9 C 94 % 1011,1 hPa 0,0 l/m 0 min 0 min 0 W/m 2,1 km/h (1 Bft)
04.02.2015 06:08 -1,8 C -3,9 C 94 % 1011,2 hPa 0,0 l/m 0 min 0 min 0 W/m 6,3 km/h (2 Bft)
04.02.2015 06:10 -1,8 C -3,9 C 94 % 1011,2 hPa 0,0 l/m 0 min 0 min 0 W/m 6,3 km/h (2 Bft)
04.02.2015 06:12 -1,9 C -3,9 C 94 % 1011,1 hPa 0,0 l/m 0 min 0 min 0 W/m 4,2 km/h (1 Bft)
04.02.2015 06:14 -1,9 C -3,9 C 94 % 1011,1 hPa 0,0 l/m 0 min 0 min 0 W/m 2,1 km/h (1 Bft)
04.02.2015 06:16 -1,9 C -3,9 C 94 % 1011,2 hPa 0,0 l/m 0 min 0 min 0 W/m 2,1 km/h (1 Bft)
04.02.2015 06:18 -2,0 C -3,9 C 94 % 1011,2 hPa 0,0 l/m 0 min 0 min 0 W/m 2,1 km/h (1 Bft)
04.02.2015 06:20 -2,0 C -3,9 C 94 % 1011,2 hPa 0,0 l/m 0 min 0 min 0 W/m 4,2 km/h (1 Bft)
04.02.2015 06:22 -2,0 C -3,9 C 94 % 1011,2 hPa 0,0 l/m 0 min 0 min 0 W/m 4,2 km/h (1 Bft)
04.02.2015 06:24 -2,1 C -3,9 C 94 % 1011,3 hPa 0,0 l/m 0 min 0 min 0 W/m 2,1 km/h (1 Bft)
04.02.2015 06:26 -2,1 C -3,9 C 94 % 1011,2 hPa 0,0 l/m 0 min 0 min 0 W/m 2,1 km/h (1 Bft)
04.02.2015 06:28 -2,1 C -3,9 C 94 % 1011,2 hPa 0,0 l/m 0 min 0 min 0 W/m 2,1 km/h (1 Bft)
04.02.2015 06:30 -2,1 C -3,9 C 94 % 1011,3 hPa 0,0 l/m 0 min 0 min 0 W/m 2,1 km/h (1 Bft)
04.02.2015 06:32 -2,2 C -3,9 C 94 % 1011,3 hPa 0,0 l/m 0 min 0 min 0 W/m 4,2 km/h (1 Bft)
04.02.2015 06:34 -2,2 C -3,9 C 94 % 1011,3 hPa 0,0 l/m 0 min 0 min 0 W/m 4,2 km/h (1 Bft)
04.02.2015 06:36 -2,2 C -3,9 C 94 % 1011,2 hPa 0,0 l/m 0 min 0 min 0 W/m 4,2 km/h (1 Bft)
04.02.2015 06:38 -2,2 C -3,9 C 94 % 1011,3 hPa 0,0 l/m 0 min 0 min 0 W/m 2,1 km/h (1 Bft)
04.02.2015 06:40 -2,3 C -3,9 C 94 % 1011,3 hPa 0,0 l/m 0 min 0 min 0 W/m 4,2 km/h (1 Bft)
04.02.2015 06:42 -2,3 C -3,9 C 94 % 1011,4 hPa 0,0 l/m 0 min 0 min 0 W/m 4,2 km/h (1 Bft)
04.02.2015 06:44 -2,3 C -3,9 C 94 % 1011,4 hPa 0,0 l/m 0 min 0 min 0 W/m 4,2 km/h (1 Bft)
04.02.2015 06:46 -2,3 C -3,9 C 94 % 1011,5 hPa 0,0 l/m 0 min 0 min 0 W/m 4,2 km/h (1 Bft)
04.02.2015 06:48 -2,4 C -3,9 C 94 % 1011,5 hPa 0,0 l/m 0 min 0 min 0 W/m 2,1 km/h (1 Bft)
04.02.2015 06:50 -2,4 C -3,9 C 94 % 1011,6 hPa 0,0 l/m 0 min 0 min 0 W/m 2,1 km/h (1 Bft)
04.02.2015 06:52 -2,4 C -3,9 C 94 % 1011,6 hPa 0,0 l/m 0 min 0 min 0 W/m 4,2 km/h (1 Bft)
04.02.2015 06:54 -2,4 C -3,9 C 94 % 1011,7 hPa 0,0 l/m 0 min 0 min 0 W/m 4,2 km/h (1 Bft)
04.02.2015 06:56 -2,4 C -3,9 C 94 % 1011,7 hPa 0,0 l/m 0 min 0 min 0 W/m 6,3 km/h (2 Bft)
04.02.2015 06:58 -2,5 C -3,9 C 94 % 1011,8 hPa 0,0 l/m 0 min 0 min 0 W/m 6,3 km/h (2 Bft)
04.02.2015 07:00 -2,5 C -3,3 C 94 % 1011,8 hPa 0,0 l/m 0 min 0 min 0 W/m 6,3 km/h (2 Bft)
04.02.2015 07:02 -2,5 C -3,9 C 94 % 1011,8 hPa 0,0 l/m 0 min 0 min 0 W/m 6,3 km/h (2 Bft)
04.02.2015 07:04 -2,5 C -3,9 C 94 % 1011,8 hPa 0,0 l/m 0 min 0 min 0 W/m 10,5 km/h (2 Bft)
04.02.2015 07:06 -2,5 C -3,9 C 94 % 1011,9 hPa 0,0 l/m 0 min 0 min 0 W/m 6,3 km/h (2 Bft)
04.02.2015 07:08 -2,6 C -3,9 C 94 % 1011,8 hPa 0,0 l/m 0 min 0 min 0 W/m 6,3 km/h (2 Bft)
04.02.2015 07:10 -2,6 C -3,9 C 94 % 1011,8 hPa 0,0 l/m 0 min 0 min 0 W/m 2,1 km/h (1 Bft)
04.02.2015 07:12 -2,6 C -3,9 C 94 % 1011,8 hPa 0,0 l/m 0 min 0 min 0 W/m 6,3 km/h (2 Bft)
04.02.2015 07:14 -2,6 C -3,9 C 94 % 1011,8 hPa 0,0 l/m 0 min 0 min 0 W/m 4,2 km/h (1 Bft)
04.02.2015 07:16 -2,6 C -3,9 C 94 % 1011,9 hPa 0,0 l/m 0 min 0 min 0 W/m 4,2 km/h (1 Bft)
04.02.2015 07:18 -2,6 C -3,9 C 94 % 1011,9 hPa 0,0 l/m 0 min 0 min 0 W/m 4,2 km/h (1 Bft)
04.02.2015 07:20 -2,6 C -3,9 C 94 % 1012,0 hPa 0,0 l/m 0 min 0 min 0 W/m 4,2 km/h (1 Bft)
04.02.2015 07:22 -2,6 C -3,9 C 94 % 1011,9 hPa 0,0 l/m 0 min 0 min 0 W/m 4,2 km/h (1 Bft)
04.02.2015 07:24 -2,6 C -3,9 C 94 % 1012,0 hPa 0,0 l/m 0 min 0 min 0 W/m 6,3 km/h (2 Bft)
04.02.2015 07:26 -2,6 C -3,9 C 94 % 1012,1 hPa 0,0 l/m 0 min 0 min 0 W/m 6,3 km/h (2 Bft)
04.02.2015 07:28 -2,6 C -3,9 C 94 % 1012,2 hPa 0,0 l/m 0 min 0 min 0 W/m 6,3 km/h (2 Bft)
04.02.2015 07:30 -2,6 C -3,3 C 94 % 1012,2 hPa 0,0 l/m 0 min 0 min 0 W/m 6,3 km/h (2 Bft)
04.02.2015 07:32 -2,6 C -3,3 C 94 % 1012,3 hPa 0,0 l/m 0 min 0 min 0 W/m 6,3 km/h (2 Bft)
04.02.2015 07:34 -2,6 C -3,3 C 94 % 1012,3 hPa 0,0 l/m 0 min 0 min 0 W/m 4,2 km/h (1 Bft)
04.02.2015 07:36 -2,6 C -3,3 C 94 % 1012,3 hPa 0,0 l/m 0 min 0 min 0 W/m 8,4 km/h (2 Bft)
04.02.2015 07:38 -2,6 C -3,3 C 94 % 1012,4 hPa 0,0 l/m 0 min 0 min 0 W/m 8,4 km/h (2 Bft)
04.02.2015 07:40 -2,6 C -3,3 C 94 % 1012,4 hPa 0,0 l/m 0 min 0 min 0 W/m 8,4 km/h (2 Bft)
04.02.2015 07:42 -2,6 C -3,3 C 95 % 1012,5 hPa 0,0 l/m 0 min 0 min 0 W/m 6,3 km/h (2 Bft)
04.02.2015 07:44 -2,6 C -3,3 C 95 % 1012,5 hPa 0,0 l/m 0 min 0 min 0 W/m 4,2 km/h (1 Bft)
04.02.2015 07:46 -2,6 C -3,3 C 95 % 1012,4 hPa 0,0 l/m 0 min 0 min 0 W/m 4,2 km/h (1 Bft)
04.02.2015 07:48 -2,6 C -2,8 C 95 % 1012,5 hPa 0,0 l/m 0 min 0 min 0 W/m 6,3 km/h (2 Bft)
04.02.2015 07:50 -2,5 C -2,8 C 95 % 1012,5 hPa 0,0 l/m 0 min 0 min 0 W/m 6,3 km/h (2 Bft)
04.02.2015 07:52 -2,5 C -2,8 C 95 % 1012,6 hPa 0,0 l/m 0 min 0 min 0 W/m 8,4 km/h (2 Bft)
04.02.2015 07:54 -2,5 C -2,8 C 95 % 1012,6 hPa 0,0 l/m 0 min 0 min 0 W/m 6,3 km/h (2 Bft)
04.02.2015 07:56 -2,5 C -2,8 C 95 % 1012,6 hPa 0,0 l/m 0 min 0 min 0 W/m 4,2 km/h (1 Bft)
04.02.2015 07:58 -2,4 C -2,8 C 95 % 1012,7 hPa 0,0 l/m 0 min 0 min 0 W/m 4,2 km/h (1 Bft)
04.02.2015 08:00 -2,4 C -2,8 C 95 % 1012,7 hPa 0,0 l/m 0 min 0 min 0 W/m 6,3 km/h (2 Bft)
04.02.2015 08:02 -2,4 C -2,8 C 95 % 1012,7 hPa 0,0 l/m 0 min 0 min 0 W/m 4,2 km/h (1 Bft)
04.02.2015 08:04 -2,4 C -2,8 C 95 % 1012,7 hPa 0,0 l/m 0 min 0 min 0 W/m 4,2 km/h (1 Bft)
04.02.2015 08:06 -2,4 C -2,8 C 95 % 1012,7 hPa 0,0 l/m 0 min 0 min 3 W/m 6,3 km/h (2 Bft)
04.02.2015 08:08 -2,3 C -2,8 C 95 % 1012,7 hPa 0,0 l/m 0 min 0 min 5 W/m 4,2 km/h (1 Bft)
04.02.2015 08:10 -2,3 C -2,8 C 95 % 1012,6 hPa 0,0 l/m 0 min 0 min 5 W/m 2,1 km/h (1 Bft)
04.02.2015 08:12 -2,3 C -2,8 C 95 % 1012,7 hPa 0,0 l/m 0 min 0 min 7 W/m 4,2 km/h (1 Bft)
04.02.2015 08:14 -2,3 C -2,8 C 95 % 1012,7 hPa 0,0 l/m 0 min 0 min 7 W/m 6,3 km/h (2 Bft)
04.02.2015 08:16 -2,3 C -2,8 C 95 % 1012,6 hPa 0,0 l/m 0 min 0 min 9 W/m 6,3 km/h (2 Bft)
04.02.2015 08:18 -2,3 C -2,8 C 95 % 1012,7 hPa 0,0 l/m 0 min 0 min 9 W/m 4,2 km/h (1 Bft)
04.02.2015 08:20 -2,2 C -2,8 C 95 % 1012,7 hPa 0,0 l/m 2 min 0 min 11 W/m 2,1 km/h (1 Bft)
04.02.2015 08:22 -2,2 C -2,8 C 95 % 1012,7 hPa 0,0 l/m 2 min 0 min 12 W/m 2,1 km/h (1 Bft)
04.02.2015 08:24 -2,2 C -3,3 C 95 % 1012,7 hPa 0,0 l/m 2 min 0 min 13 W/m 2,1 km/h (1 Bft)
04.02.2015 08:26 -2,2 C -3,3 C 95 % 1012,7 hPa 0,0 l/m 2 min 0 min 16 W/m 4,2 km/h (1 Bft)
04.02.2015 08:28 -2,2 C -3,3 C 95 % 1012,7 hPa 0,0 l/m 2 min 0 min 18 W/m 2,1 km/h (1 Bft)
04.02.2015 08:30 -2,2 C -3,3 C 95 % 1012,7 hPa 0,0 l/m 0 min 0 min 20 W/m 4,2 km/h (1 Bft)
04.02.2015 08:32 -2,2 C -3,3 C 95 % 1012,7 hPa 0,0 l/m 0 min 0 min 22 W/m 2,1 km/h (1 Bft)
04.02.2015 08:34 -2,2 C -3,3 C 95 % 1012,8 hPa 0,0 l/m 2 min 0 min 26 W/m 2,1 km/h (1 Bft)
04.02.2015 08:36 -2,2 C -3,3 C 95 % 1012,8 hPa 0,0 l/m 2 min 0 min 29 W/m 2,1 km/h (1 Bft)
04.02.2015 08:38 -2,2 C -3,3 C 95 % 1012,8 hPa 0,0 l/m 2 min 0 min 34 W/m 2,1 km/h (1 Bft)
04.02.2015 08:40 -2,2 C -3,3 C 95 % 1012,8 hPa 0,0 l/m 2 min 0 min 33 W/m 2,1 km/h (1 Bft)
04.02.2015 08:42 -2,2 C -3,3 C 95 % 1012,8 hPa 0,0 l/m 0 min 0 min 32 W/m 2,1 km/h (1 Bft)
04.02.2015 08:44 -2,2 C -3,3 C 95 % 1012,8 hPa 0,0 l/m 0 min 0 min 34 W/m 4,2 km/h (1 Bft)
04.02.2015 08:46 -2,2 C -2,8 C 95 % 1012,8 hPa 0,0 l/m 0 min 0 min 28 W/m 4,2 km/h (1 Bft)
04.02.2015 08:48 -2,2 C -2,8 C 95 % 1012,8 hPa 0,0 l/m 0 min 0 min 27 W/m 4,2 km/h (1 Bft)
04.02.2015 08:50 -2,2 C -2,8 C 95 % 1012,8 hPa 0,0 l/m 0 min 0 min 31 W/m 4,2 km/h (1 Bft)
04.02.2015 08:52 -2,2 C -2,8 C 95 % 1012,9 hPa 0,0 l/m 0 min 0 min 38 W/m 4,2 km/h (1 Bft)
04.02.2015 08:54 -2,2 C -2,8 C 95 % 1012,9 hPa 0,0 l/m 0 min 0 min 42 W/m 4,2 km/h (1 Bft)
04.02.2015 08:56 -2,2 C -2,8 C 95 % 1013,0 hPa 0,0 l/m 0 min 0 min 42 W/m 4,2 km/h (1 Bft)
04.02.2015 08:58 -2,2 C -2,8 C 95 % 1012,9 hPa 0,0 l/m 0 min 0 min 43 W/m 4,2 km/h (1 Bft)
04.02.2015 09:00 -2,2 C -2,2 C 95 % 1012,9 hPa 0,0 l/m 0 min 0 min 45 W/m 6,3 km/h (2 Bft)
04.02.2015 09:02 -2,2 C -2,2 C 95 % 1012,8 hPa 0,0 l/m 0 min 0 min 43 W/m 6,3 km/h (2 Bft)
04.02.2015 09:04 -2,2 C -2,2 C 95 % 1012,9 hPa 0,0 l/m 0 min 0 min 41 W/m 4,2 km/h (1 Bft)
04.02.2015 09:06 -2,1 C -2,2 C 95 % 1013,0 hPa 0,0 l/m 0 min 0 min 38 W/m 4,2 km/h (1 Bft)
04.02.2015 09:08 -2,1 C -2,2 C 95 % 1013,0 hPa 0,0 l/m 0 min 0 min 41 W/m 6,3 km/h (2 Bft)
04.02.2015 09:10 -2,1 C -2,2 C 95 % 1013,0 hPa 0,0 l/m 0 min 0 min 48 W/m 4,2 km/h (1 Bft)
04.02.2015 09:12 -2,1 C -2,2 C 95 % 1013,0 hPa 0,0 l/m 0 min 0 min 48 W/m 2,1 km/h (1 Bft)
04.02.2015 09:14 -2,1 C -2,2 C 95 % 1013,1 hPa 0,0 l/m 0 min 0 min 43 W/m 4,2 km/h (1 Bft)
04.02.2015 09:16 -2,0 C -2,2 C 95 % 1013,1 hPa 0,0 l/m 0 min 0 min 42 W/m 4,2 km/h (1 Bft)
04.02.2015 09:18 -2,0 C -2,2 C 95 % 1013,1 hPa 0,0 l/m 0 min 0 min 44 W/m 6,3 km/h (2 Bft)
04.02.2015 09:20 -1,9 C -1,7 C 95 % 1013,1 hPa 0,0 l/m 0 min 0 min 47 W/m 4,2 km/h (1 Bft)
04.02.2015 09:22 -1,9 C -1,7 C 95 % 1013,1 hPa 0,0 l/m 0 min 0 min 50 W/m 6,3 km/h (2 Bft)
04.02.2015 09:24 -1,9 C -1,7 C 95 % 1013,1 hPa 0,0 l/m 0 min 0 min 52 W/m 4,2 km/h (1 Bft)
04.02.2015 09:26 -1,8 C -1,7 C 96 % 1013,2 hPa 0,0 l/m 0 min 0 min 54 W/m 6,3 km/h (2 Bft)
04.02.2015 09:28 -1,8 C -1,7 C 95 % 1013,1 hPa 0,0 l/m 0 min 0 min 56 W/m 6,3 km/h (2 Bft)
04.02.2015 09:30 -1,7 C -1,7 C 95 % 1013,2 hPa 0,0 l/m 0 min 0 min 58 W/m 6,3 km/h (2 Bft)
04.02.2015 09:32 -1,7 C -1,7 C 95 % 1013,2 hPa 0,0 l/m 0 min 0 min 58 W/m 6,3 km/h (2 Bft)
04.02.2015 09:34 -1,7 C -1,7 C 95 % 1013,2 hPa 0,0 l/m 0 min 0 min 58 W/m 6,3 km/h (2 Bft)
04.02.2015 09:36 -1,6 C -1,7 C 96 % 1013,2 hPa 0,0 l/m 0 min 0 min 60 W/m 6,3 km/h (2 Bft)
04.02.2015 09:38 -1,6 C -1,7 C 96 % 1013,1 hPa 0,0 l/m 0 min 0 min 62 W/m 2,1 km/h (1 Bft)
04.02.2015 09:40 -1,6 C -1,7 C 96 % 1013,1 hPa 0,0 l/m 0 min 0 min 63 W/m 2,1 km/h (1 Bft)
04.02.2015 09:42 -1,5 C -1,7 C 96 % 1013,2 hPa 0,0 l/m 0 min 0 min 65 W/m 4,2 km/h (1 Bft)
04.02.2015 09:44 -1,5 C -1,1 C 96 % 1013,2 hPa 0,0 l/m 0 min 0 min 64 W/m 6,3 km/h (2 Bft)
04.02.2015 09:46 -1,4 C -1,1 C 96 % 1013,2 hPa 0,0 l/m 0 min 0 min 67 W/m 4,2 km/h (1 Bft)
04.02.2015 09:48 -1,4 C -1,1 C 96 % 1013,2 hPa 0,0 l/m 0 min 0 min 74 W/m 6,3 km/h (2 Bft)
04.02.2015 09:50 -1,4 C -1,1 C 96 % 1013,2 hPa 0,0 l/m 0 min 0 min 78 W/m 4,2 km/h (1 Bft)
04.02.2015 09:52 -1,3 C -1,1 C 96 % 1013,2 hPa 0,0 l/m 0 min 0 min 81 W/m 6,3 km/h (2 Bft)
04.02.2015 09:54 -1,3 C -1,1 C 96 % 1013,3 hPa 0,0 l/m 0 min 0 min 74 W/m 6,3 km/h (2 Bft)
04.02.2015 09:56 -1,3 C -1,1 C 96 % 1013,4 hPa 0,0 l/m 0 min 0 min 74 W/m 6,3 km/h (2 Bft)
04.02.2015 09:58 -1,2 C -1,1 C 96 % 1013,3 hPa 0,0 l/m 0 min 0 min 81 W/m 4,2 km/h (1 Bft)
04.02.2015 10:00 -1,2 C -1,1 C 96 % 1013,4 hPa 0,0 l/m 0 min 0 min 88 W/m 4,2 km/h (1 Bft)
04.02.2015 10:02 -1,1 C -1,1 C 96 % 1013,3 hPa 0,0 l/m 0 min 0 min 92 W/m 4,2 km/h (1 Bft)
04.02.2015 10:04 -1,1 C -0,6 C 96 % 1013,4 hPa 0,0 l/m 0 min 0 min 91 W/m 2,1 km/h (1 Bft)
04.02.2015 10:06 -1,1 C -0,6 C 96 % 1013,4 hPa 0,0 l/m 0 min 0 min 88 W/m 4,2 km/h (1 Bft)
04.02.2015 10:08 -1,0 C -0,6 C 96 % 1013,4 hPa 0,0 l/m 0 min 0 min 89 W/m 4,2 km/h (1 Bft)
04.02.2015 10:10 -0,9 C -0,6 C 96 % 1013,4 hPa 0,0 l/m 0 min 0 min 88 W/m 6,3 km/h (2 Bft)
04.02.2015 10:12 -0,9 C -0,6 C 96 % 1013,5 hPa 0,0 l/m 0 min 0 min 84 W/m 6,3 km/h (2 Bft)
04.02.2015 10:14 -0,9 C -0,6 C 96 % 1013,5 hPa 0,0 l/m 0 min 0 min 87 W/m 6,3 km/h (2 Bft)
04.02.2015 10:16 -0,8 C -0,6 C 96 % 1013,5 hPa 0,0 l/m 0 min 0 min 96 W/m 6,3 km/h (2 Bft)
04.02.2015 10:18 -0,8 C -0,6 C 96 % 1013,4 hPa 0,0 l/m 0 min 0 min 97 W/m 4,2 km/h (1 Bft)
04.02.2015 10:20 -0,8 C -0,6 C 96 % 1013,5 hPa 0,0 l/m 0 min 0 min 93 W/m 6,3 km/h (2 Bft)
04.02.2015 10:22 -0,7 C -0,6 C 96 % 1013,5 hPa 0,0 l/m 0 min 0 min 91 W/m 6,3 km/h (2 Bft)
04.02.2015 10:24 -0,7 C -0,6 C 96 % 1013,5 hPa 0,0 l/m 0 min 0 min 96 W/m 6,3 km/h (2 Bft)
04.02.2015 10:26 -0,7 C -0,6 C 96 % 1013,5 hPa 0,0 l/m 0 min 0 min 101 W/m 6,3 km/h (2 Bft)
04.02.2015 10:28 -0,6 C -0,6 C 96 % 1013,5 hPa 0,0 l/m 0 min 0 min 110 W/m 6,3 km/h (2 Bft)
04.02.2015 10:30 -0,6 C -0,6 C 96 % 1013,5 hPa 0,0 l/m 0 min 0 min 118 W/m 6,3 km/h (2 Bft)
04.02.2015 10:32 -0,6 C -0,6 C 96 % 1013,6 hPa 0,0 l/m 0 min 0 min 125 W/m 8,4 km/h (2 Bft)
04.02.2015 10:34 -0,5 C -0,6 C 96 % 1013,6 hPa 0,0 l/m 0 min 0 min 133 W/m 6,3 km/h (2 Bft)
04.02.2015 10:36 -0,5 C -0,6 C 96 % 1013,7 hPa 0,0 l/m 0 min 0 min 133 W/m 6,3 km/h (2 Bft)
04.02.2015 10:38 -0,4 C -0,6 C 96 % 1013,7 hPa 0,0 l/m 0 min 0 min 130 W/m 4,2 km/h (1 Bft)
04.02.2015 10:40 -0,4 C -0,6 C 96 % 1013,7 hPa 0,0 l/m 0 min 0 min 130 W/m 4,2 km/h (1 Bft)
04.02.2015 10:42 -0,4 C 0,0 C 96 % 1013,7 hPa 0,0 l/m 0 min 0 min 132 W/m 4,2 km/h (1 Bft)
04.02.2015 10:44 -0,3 C 0,0 C 96 % 1013,7 hPa 0,0 l/m 0 min 0 min 136 W/m 6,3 km/h (2 Bft)
04.02.2015 10:46 -0,3 C 0,0 C 96 % 1013,7 hPa 0,0 l/m 0 min 0 min 141 W/m 8,4 km/h (2 Bft)
04.02.2015 10:48 -0,3 C 0,0 C 96 % 1013,7 hPa 0,0 l/m 0 min 0 min 140 W/m 4,2 km/h (1 Bft)
04.02.2015 10:50 -0,3 C 0,0 C 96 % 1013,7 hPa 0,0 l/m 0 min 0 min 143 W/m 8,4 km/h (2 Bft)
04.02.2015 10:52 -0,2 C 0,0 C 96 % 1013,7 hPa 0,0 l/m 0 min 0 min 145 W/m 8,4 km/h (2 Bft)
04.02.2015 10:54 -0,2 C 0,0 C 96 % 1013,7 hPa 0,0 l/m 0 min 0 min 149 W/m 10,5 km/h (2 Bft)
04.02.2015 10:56 -0,1 C 0,0 C 96 % 1013,7 hPa 0,0 l/m 2 min 0 min 186 W/m 8,4 km/h (2 Bft)
04.02.2015 10:58 -0,1 C 0,0 C 96 % 1013,7 hPa 0,0 l/m 2 min 0 min 180 W/m 8,4 km/h (2 Bft)
04.02.2015 11:00 -0,1 C 0,0 C 96 % 1013,8 hPa 0,0 l/m 0 min 0 min 156 W/m 8,4 km/h (2 Bft)
04.02.2015 11:02 0,0 C 0,0 C 96 % 1013,8 hPa 0,0 l/m 2 min 0 min 170 W/m 10,5 km/h (2 Bft)
04.02.2015 11:04 0,0 C 0,0 C 96 % 1013,7 hPa 0,0 l/m 2 min 0 min 186 W/m 10,5 km/h (2 Bft)
04.02.2015 11:06 0,1 C 0,0 C 96 % 1013,8 hPa 0,0 l/m 2 min 0 min 190 W/m 8,4 km/h (2 Bft)
04.02.2015 11:08 0,1 C 0,6 C 96 % 1013,8 hPa 0,0 l/m 2 min 0 min 182 W/m 10,5 km/h (2 Bft)
04.02.2015 11:10 0,2 C 0,6 C 96 % 1013,9 hPa 0,0 l/m 2 min 0 min 183 W/m 8,4 km/h (2 Bft)
04.02.2015 11:12 0,2 C 0,6 C 96 % 1013,8 hPa 0,0 l/m 2 min 0 min 190 W/m 6,3 km/h (2 Bft)
04.02.2015 11:14 0,2 C 0,6 C 96 % 1013,8 hPa 0,0 l/m 2 min 0 min 184 W/m 8,4 km/h (2 Bft)
04.02.2015 11:16 0,3 C 0,6 C 96 % 1013,9 hPa 0,0 l/m 2 min 0 min 181 W/m 8,4 km/h (2 Bft)
04.02.2015 11:18 0,3 C 0,6 C 96 % 1013,8 hPa 0,0 l/m 2 min 0 min 178 W/m 8,4 km/h (2 Bft)
04.02.2015 11:20 0,4 C 0,6 C 96 % 1013,8 hPa 0,0 l/m 0 min 0 min 168 W/m 8,4 km/h (2 Bft)
04.02.2015 11:22 0,4 C 0,6 C 97 % 1013,8 hPa 0,0 l/m 0 min 0 min 159 W/m 8,4 km/h (2 Bft)
04.02.2015 11:24 0,5 C 0,6 C 96 % 1013,8 hPa 0,0 l/m 0 min 0 min 152 W/m 10,5 km/h (2 Bft)
04.02.2015 11:26 0,5 C 0,6 C 96 % 1013,8 hPa 0,0 l/m 0 min 0 min 142 W/m 8,4 km/h (2 Bft)
04.02.2015 11:28 0,5 C 1,1 C 96 % 1013,7 hPa 0,0 l/m 0 min 0 min 133 W/m 8,4 km/h (2 Bft)
04.02.2015 11:30 0,5 C 1,1 C 96 % 1013,8 hPa 0,0 l/m 0 min 0 min 135 W/m 6,3 km/h (2 Bft)
04.02.2015 11:32 0,5 C 1,1 C 96 % 1013,7 hPa 0,0 l/m 0 min 0 min 132 W/m 6,3 km/h (2 Bft)
04.02.2015 11:34 0,6 C 1,1 C 96 % 1013,8 hPa 0,0 l/m 0 min 0 min 131 W/m 6,3 km/h (2 Bft)
04.02.2015 11:36 0,6 C 1,1 C 96 % 1013,8 hPa 0,0 l/m 0 min 0 min 136 W/m 8,4 km/h (2 Bft)
04.02.2015 11:38 0,7 C 1,1 C 96 % 1013,9 hPa 0,0 l/m 0 min 0 min 138 W/m 8,4 km/h (2 Bft)
04.02.2015 11:40 0,7 C 1,1 C 96 % 1013,8 hPa 0,0 l/m 0 min 0 min 145 W/m 6,3 km/h (2 Bft)
04.02.2015 11:42 0,7 C 1,1 C 96 % 1013,8 hPa 0,0 l/m 0 min 0 min 158 W/m 6,3 km/h (2 Bft)
04.02.2015 11:44 0,7 C 1,1 C 96 % 1013,8 hPa 0,0 l/m 0 min 0 min 173 W/m 6,3 km/h (2 Bft)
04.02.2015 11:46 0,8 C 1,1 C 96 % 1013,8 hPa 0,0 l/m 0 min 0 min 180 W/m 6,3 km/h (2 Bft)
04.02.2015 11:48 0,8 C 1,7 C 96 % 1013,8 hPa 0,0 l/m 0 min 0 min 175 W/m 6,3 km/h (2 Bft)
04.02.2015 11:50 0,9 C 1,7 C 96 % 1013,8 hPa 0,0 l/m 0 min 0 min 178 W/m 8,4 km/h (2 Bft)
04.02.2015 11:52 0,9 C 1,7 C 96 % 1013,9 hPa 0,0 l/m 0 min 0 min 182 W/m 8,4 km/h (2 Bft)
04.02.2015 11:54 1,0 C 1,7 C 96 % 1013,8 hPa 0,0 l/m 0 min 0 min 177 W/m 10,5 km/h (2 Bft)
04.02.2015 11:56 1,0 C 1,7 C 96 % 1013,8 hPa 0,0 l/m 2 min 0 min 186 W/m 8,4 km/h (2 Bft)
04.02.2015 11:58 1,1 C 1,7 C 96 % 1013,8 hPa 0,0 l/m 2 min 0 min 201 W/m 8,4 km/h (2 Bft)
04.02.2015 12:00 1,1 C 1,7 C 96 % 1013,8 hPa 0,0 l/m 2 min 0 min 206 W/m 6,3 km/h (2 Bft)
04.02.2015 12:03 1,2 C 1,7 C 96 % 1013,8 hPa 0,0 l/m 2 min 0 min 197 W/m 4,2 km/h (1 Bft)
04.02.2015 12:06 1,2 C 2,2 C 96 % 1013,8 hPa 0,0 l/m 2 min 0 min 204 W/m 6,3 km/h (2 Bft)
04.02.2015 12:08 1,3 C 2,2 C 96 % 1013,8 hPa 0,0 l/m 2 min 0 min 228 W/m 6,3 km/h (2 Bft)
04.02.2015 12:10 1,3 C 2,2 C 96 % 1013,8 hPa 0,0 l/m 2 min 0 min 235 W/m 6,3 km/h (2 Bft)
04.02.2015 12:12 1,4 C 2,2 C 96 % 1013,8 hPa 0,0 l/m 2 min 0 min 234 W/m 4,2 km/h (1 Bft)
04.02.2015 12:14 1,5 C 2,2 C 96 % 1013,8 hPa 0,0 l/m 2 min 0 min 222 W/m 10,5 km/h (2 Bft)
04.02.2015 12:16 1,5 C 2,2 C 96 % 1013,8 hPa 0,0 l/m 2 min 0 min 220 W/m 10,5 km/h (2 Bft)
04.02.2015 12:18 1,6 C 2,2 C 96 % 1013,7 hPa 0,0 l/m 2 min 0 min 217 W/m 8,4 km/h (2 Bft)
04.02.2015 12:20 1,7 C 2,8 C 95 % 1013,7 hPa 0,0 l/m 2 min 0 min 216 W/m 6,3 km/h (2 Bft)
04.02.2015 12:22 1,7 C 2,2 C 95 % 1013,7 hPa 0,0 l/m 2 min 0 min 210 W/m 8,4 km/h (2 Bft)
04.02.2015 12:24 1,7 C 2,2 C 95 % 1013,8 hPa 0,0 l/m 2 min 0 min 206 W/m 8,4 km/h (2 Bft)
04.02.2015 12:26 1,8 C 2,2 C 95 % 1013,8 hPa 0,0 l/m 2 min 0 min 201 W/m 8,4 km/h (2 Bft)
04.02.2015 12:28 1,8 C 2,2 C 95 % 1013,8 hPa 0,0 l/m 2 min 0 min 208 W/m 6,3 km/h (2 Bft)
04.02.2015 12:30 1,8 C 2,2 C 95 % 1013,8 hPa 0,0 l/m 2 min 0 min 211 W/m 6,3 km/h (2 Bft)
04.02.2015 12:32 1,9 C 2,2 C 95 % 1013,8 hPa 0,0 l/m 2 min 0 min 209 W/m 8,4 km/h (2 Bft)
04.02.2015 12:34 1,9 C 2,2 C 95 % 1013,9 hPa 0,0 l/m 2 min 0 min 215 W/m 8,4 km/h (2 Bft)
04.02.2015 12:36 1,9 C 2,2 C 94 % 1013,8 hPa 0,0 l/m 2 min 0 min 210 W/m 4,2 km/h (1 Bft)
04.02.2015 12:38 2,0 C 2,2 C 94 % 1013,8 hPa 0,0 l/m 2 min 0 min 195 W/m 8,4 km/h (2 Bft)
04.02.2015 12:40 2,0 C 2,2 C 94 % 1013,9 hPa 0,2 l/m 0 min 0 min 189 W/m 8,4 km/h (2 Bft)
04.02.2015 12:42 2,1 C 2,2 C 94 % 1013,9 hPa 0,0 l/m 0 min 0 min 185 W/m 8,4 km/h (2 Bft)
04.02.2015 12:44 2,1 C 2,2 C 93 % 1013,9 hPa 0,0 l/m 0 min 0 min 187 W/m 6,3 km/h (2 Bft)
04.02.2015 12:46 2,1 C 2,2 C 93 % 1013,8 hPa 0,0 l/m 0 min 0 min 188 W/m 4,2 km/h (1 Bft)
04.02.2015 12:48 2,1 C 2,2 C 93 % 1013,8 hPa 0,0 l/m 0 min 0 min 185 W/m 6,3 km/h (2 Bft)
04.02.2015 12:50 2,1 C 2,2 C 93 % 1013,8 hPa 0,0 l/m 0 min 0 min 186 W/m 6,3 km/h (2 Bft)
04.02.2015 12:52 2,2 C 2,2 C 92 % 1013,9 hPa 0,0 l/m 0 min 0 min 191 W/m 6,3 km/h (2 Bft)
04.02.2015 12:54 2,2 C 2,2 C 92 % 1013,8 hPa 0,0 l/m 2 min 0 min 194 W/m 6,3 km/h (2 Bft)
04.02.2015 12:56 2,2 C 2,8 C 92 % 1013,8 hPa 0,0 l/m 2 min 0 min 196 W/m 4,2 km/h (1 Bft)
04.02.2015 12:58 2,2 C 2,8 C 92 % 1013,9 hPa 0,0 l/m 0 min 0 min 191 W/m 6,3 km/h (2 Bft)
04.02.2015 13:00 2,2 C 2,8 C 91 % 1013,9 hPa 0,0 l/m 0 min 0 min 191 W/m 4,2 km/h (1 Bft)
04.02.2015 13:02 2,3 C 2,2 C 91 % 1013,9 hPa 0,0 l/m 0 min 0 min 182 W/m 8,4 km/h (2 Bft)
04.02.2015 13:04 2,3 C 2,2 C 91 % 1013,9 hPa 0,0 l/m 0 min 0 min 166 W/m 8,4 km/h (2 Bft)
04.02.2015 13:06 2,3 C 2,2 C 91 % 1013,9 hPa 0,0 l/m 0 min 0 min 170 W/m 8,4 km/h (2 Bft)
04.02.2015 13:08 2,3 C 2,2 C 91 % 1013,9 hPa 0,0 l/m 2 min 0 min 199 W/m 8,4 km/h (2 Bft)
04.02.2015 13:10 2,3 C 2,2 C 90 % 1013,9 hPa 0,0 l/m 2 min 0 min 216 W/m 6,3 km/h (2 Bft)
04.02.2015 13:12 2,3 C 2,2 C 90 % 1013,9 hPa 0,0 l/m 2 min 0 min 220 W/m 6,3 km/h (2 Bft)
04.02.2015 13:14 2,3 C 2,2 C 90 % 1013,9 hPa 0,0 l/m 2 min 0 min 224 W/m 8,4 km/h (2 Bft)
04.02.2015 13:16 2,3 C 2,2 C 90 % 1014,0 hPa 0,0 l/m 2 min 0 min 217 W/m 6,3 km/h (2 Bft)
04.02.2015 13:18 2,4 C 2,2 C 89 % 1013,9 hPa 0,0 l/m 2 min 0 min 215 W/m 8,4 km/h (2 Bft)
04.02.2015 13:20 2,4 C 2,2 C 89 % 1013,9 hPa 0,0 l/m 2 min 0 min 239 W/m 6,3 km/h (2 Bft)
04.02.2015 13:22 2,4 C 2,2 C 89 % 1013,9 hPa 0,0 l/m 2 min 0 min 228 W/m 6,3 km/h (2 Bft)
04.02.2015 13:24 2,5 C 2,2 C 89 % 1013,9 hPa 0,0 l/m 2 min 0 min 323 W/m 6,3 km/h (2 Bft)
04.02.2015 13:26 2,6 C 2,2 C 89 % 1013,9 hPa 0,0 l/m 2 min 0 min 310 W/m 10,5 km/h (2 Bft)
04.02.2015 13:28 2,6 C 2,2 C 89 % 1013,9 hPa 0,0 l/m 2 min 0 min 273 W/m 8,4 km/h (2 Bft)
04.02.2015 13:30 2,6 C 2,2 C 89 % 1013,9 hPa 0,0 l/m 2 min 0 min 237 W/m 10,5 km/h (2 Bft)
04.02.2015 13:32 2,7 C 2,2 C 89 % 1013,9 hPa 0,0 l/m 2 min 0 min 335 W/m 10,5 km/h (2 Bft)
04.02.2015 13:34 2,8 C 2,2 C 89 % 1013,9 hPa 0,0 l/m 2 min 0 min 394 W/m 10,5 km/h (2 Bft)
04.02.2015 13:36 2,8 C 2,2 C 89 % 1013,9 hPa 0,0 l/m 2 min 0 min 411 W/m 8,4 km/h (2 Bft)
04.02.2015 13:38 2,9 C 2,2 C 89 % 1013,9 hPa 0,0 l/m 2 min 0 min 261 W/m 8,4 km/h (2 Bft)
04.02.2015 13:40 3,0 C 2,2 C 89 % 1013,9 hPa 0,0 l/m 2 min 0 min 376 W/m 8,4 km/h (2 Bft)
04.02.2015 13:42 3,1 C 2,2 C 88 % 1013,9 hPa 0,0 l/m 2 min 0 min 237 W/m 12,6 km/h (3 Bft)
04.02.2015 13:44 3,2 C 2,2 C 88 % 1013,9 hPa 0,0 l/m 2 min 0 min 320 W/m 10,5 km/h (2 Bft)
04.02.2015 13:46 3,3 C 2,2 C 88 % 1013,9 hPa 0,0 l/m 2 min 0 min 189 W/m 8,4 km/h (2 Bft)
04.02.2015 13:48 3,3 C 1,7 C 88 % 1013,9 hPa 0,0 l/m 0 min 0 min 144 W/m 8,4 km/h (2 Bft)
04.02.2015 13:50 3,3 C 1,7 C 87 % 1014,0 hPa 0,0 l/m 2 min 0 min 241 W/m 8,4 km/h (2 Bft)
04.02.2015 13:52 3,4 C 1,7 C 87 % 1014,0 hPa 0,0 l/m 2 min 0 min 334 W/m 12,6 km/h (3 Bft)
04.02.2015 13:54 3,4 C 1,7 C 87 % 1014,0 hPa 0,0 l/m 2 min 0 min 252 W/m 8,4 km/h (2 Bft)
04.02.2015 13:56 3,4 C 1,7 C 86 % 1014,0 hPa 0,0 l/m 0 min 0 min 166 W/m 14,6 km/h (3 Bft)
04.02.2015 13:58 3,4 C 1,7 C 86 % 1014,0 hPa 0,0 l/m 2 min 0 min 225 W/m 12,6 km/h (3 Bft)
04.02.2015 14:00 3,5 C 1,7 C 86 % 1014,1 hPa 0,0 l/m 2 min 0 min 267 W/m 10,5 km/h (2 Bft)
04.02.2015 14:02 3,6 C 2,2 C 86 % 1014,1 hPa 0,0 l/m 2 min 0 min 246 W/m 10,5 km/h (2 Bft)
04.02.2015 14:04 3,6 C 2,2 C 86 % 1014,1 hPa 0,0 l/m 2 min 0 min 214 W/m 8,4 km/h (2 Bft)
04.02.2015 14:06 3,6 C 2,2 C 86 % 1014,1 hPa 0,0 l/m 2 min 0 min 349 W/m 8,4 km/h (2 Bft)
04.02.2015 14:08 3,7 C 2,2 C 86 % 1014,1 hPa 0,0 l/m 2 min 0 min 376 W/m 8,4 km/h (2 Bft)
04.02.2015 14:10 3,7 C 2,2 C 86 % 1014,1 hPa 0,0 l/m 2 min 0 min 256 W/m 6,3 km/h (2 Bft)
04.02.2015 14:12 3,8 C 2,2 C 86 % 1014,1 hPa 0,0 l/m 2 min 0 min 252 W/m 10,5 km/h (2 Bft)
04.02.2015 14:14 3,8 C 2,8 C 85 % 1014,1 hPa 0,0 l/m 2 min 0 min 280 W/m 8,4 km/h (2 Bft)
04.02.2015 14:16 3,9 C 2,8 C 85 % 1014,1 hPa 0,0 l/m 2 min 0 min 274 W/m 8,4 km/h (2 Bft)
04.02.2015 14:18 3,9 C 3,3 C 85 % 1014,2 hPa 0,0 l/m 2 min 0 min 222 W/m 8,4 km/h (2 Bft)
04.02.2015 14:20 3,9 C 3,3 C 85 % 1014,2 hPa 0,0 l/m 2 min 0 min 212 W/m 6,3 km/h (2 Bft)
04.02.2015 14:22 4,0 C 3,3 C 84 % 1014,2 hPa 0,0 l/m 2 min 0 min 212 W/m 6,3 km/h (2 Bft)
04.02.2015 14:24 4,0 C 2,8 C 84 % 1014,2 hPa 0,0 l/m 2 min 0 min 191 W/m 8,4 km/h (2 Bft)
04.02.2015 14:26 4,0 C 2,8 C 84 % 1014,2 hPa 0,0 l/m 2 min 0 min 181 W/m 4,2 km/h (1 Bft)
04.02.2015 14:28 3,9 C 2,8 C 84 % 1014,2 hPa 0,0 l/m 2 min 0 min 171 W/m 6,3 km/h (2 Bft)
04.02.2015 14:30 3,9 C 2,2 C 83 % 1014,2 hPa 0,0 l/m 0 min 0 min 161 W/m 6,3 km/h (2 Bft)
04.02.2015 14:32 3,8 C 2,2 C 83 % 1014,2 hPa 0,0 l/m 0 min 0 min 147 W/m 6,3 km/h (2 Bft)
04.02.2015 14:34 3,8 C 2,2 C 83 % 1014,1 hPa 0,0 l/m 0 min 0 min 136 W/m 4,2 km/h (1 Bft)
04.02.2015 14:36 3,7 C 2,2 C 83 % 1014,2 hPa 0,0 l/m 0 min 0 min 139 W/m 2,1 km/h (1 Bft)
04.02.2015 14:38 3,7 C 2,2 C 83 % 1014,2 hPa 0,0 l/m 0 min 0 min 158 W/m 4,2 km/h (1 Bft)
04.02.2015 14:40 3,7 C 2,2 C 83 % 1014,2 hPa 0,0 l/m 2 min 0 min 178 W/m 6,3 km/h (2 Bft)
04.02.2015 14:42 3,7 C 2,8 C 83 % 1014,2 hPa 0,0 l/m 2 min 0 min 210 W/m 6,3 km/h (2 Bft)
04.02.2015 14:44 3,7 C 2,8 C 84 % 1014,2 hPa 0,0 l/m 2 min 0 min 219 W/m 6,3 km/h (2 Bft)
04.02.2015 14:46 3,7 C 2,8 C 84 % 1014,2 hPa 0,0 l/m 2 min 0 min 244 W/m 2,1 km/h (1 Bft)
04.02.2015 14:48 3,7 C 2,8 C 84 % 1014,2 hPa 0,0 l/m 2 min 0 min 221 W/m 8,4 km/h (2 Bft)
04.02.2015 14:50 3,8 C 2,8 C 84 % 1014,2 hPa 0,0 l/m 2 min 0 min 162 W/m 8,4 km/h (2 Bft)
04.02.2015 14:52 3,8 C 2,8 C 84 % 1014,2 hPa 0,0 l/m 0 min 0 min 133 W/m 2,1 km/h (1 Bft)
04.02.2015 14:54 3,8 C 2,2 C 84 % 1014,2 hPa 0,0 l/m 0 min 0 min 107 W/m 6,3 km/h (2 Bft)
04.02.2015 14:56 3,8 C 2,2 C 84 % 1014,2 hPa 0,0 l/m 0 min 0 min 92 W/m 4,2 km/h (1 Bft)
04.02.2015 14:58 3,7 C 2,2 C 84 % 1014,3 hPa 0,0 l/m 0 min 0 min 91 W/m 2,1 km/h (1 Bft)
04.02.2015 15:00 3,7 C 2,2 C 84 % 1014,3 hPa 0,0 l/m 0 min 0 min 104 W/m 2,1 km/h (1 Bft)
04.02.2015 15:02 3,7 C 2,2 C 84 % 1014,2 hPa 0,0 l/m 0 min 0 min 134 W/m 6,3 km/h (2 Bft)
04.02.2015 15:04 3,8 C 2,2 C 84 % 1014,2 hPa 0,0 l/m 2 min 0 min 148 W/m 4,2 km/h (1 Bft)
04.02.2015 15:06 3,8 C 2,2 C 84 % 1014,2 hPa 0,0 l/m 2 min 0 min 236 W/m 4,2 km/h (1 Bft)
04.02.2015 15:08 3,8 C 2,2 C 84 % 1014,2 hPa 0,0 l/m 2 min 0 min 216 W/m 4,2 km/h (1 Bft)
04.02.2015 15:10 3,8 C 2,2 C 84 % 1014,2 hPa 0,0 l/m 2 min 0 min 216 W/m 2,1 km/h (1 Bft)
04.02.2015 15:12 3,8 C 2,2 C 84 % 1014,2 hPa 0,0 l/m 2 min 0 min 189 W/m 4,2 km/h (1 Bft)
04.02.2015 15:14 3,9 C 2,2 C 84 % 1014,3 hPa 0,0 l/m 2 min 0 min 204 W/m 6,3 km/h (2 Bft)
04.02.2015 15:16 3,9 C 2,2 C 84 % 1014,3 hPa 0,0 l/m 2 min 0 min 202 W/m 10,5 km/h (2 Bft)
04.02.2015 15:18 4,0 C 2,2 C 84 % 1014,3 hPa 0,0 l/m 2 min 0 min 163 W/m 6,3 km/h (2 Bft)
04.02.2015 15:20 4,1 C 2,2 C 84 % 1014,3 hPa 0,0 l/m 2 min 0 min 164 W/m 6,3 km/h (2 Bft)
04.02.2015 15:22 4,1 C 2,2 C 84 % 1014,3 hPa 0,0 l/m 2 min 0 min 180 W/m 4,2 km/h (1 Bft)
04.02.2015 15:24 4,2 C 2,2 C 84 % 1014,3 hPa 0,0 l/m 2 min 0 min 163 W/m 6,3 km/h (2 Bft)
04.02.2015 15:26 4,2 C 1,7 C 83 % 1014,3 hPa 0,0 l/m 2 min 0 min 152 W/m 4,2 km/h (1 Bft)
04.02.2015 15:28 4,3 C 1,7 C 83 % 1014,4 hPa 0,0 l/m 2 min 0 min 166 W/m 8,4 km/h (2 Bft)
04.02.2015 15:30 4,3 C 1,7 C 83 % 1014,4 hPa 0,0 l/m 2 min 0 min 166 W/m 4,2 km/h (1 Bft)
04.02.2015 15:32 4,3 C 1,7 C 82 % 1014,5 hPa 0,0 l/m 2 min 0 min 172 W/m 4,2 km/h (1 Bft)
04.02.2015 15:34 4,4 C 1,7 C 82 % 1014,4 hPa 0,0 l/m 2 min 0 min 165 W/m 2,1 km/h (1 Bft)
04.02.2015 15:36 4,4 C 1,7 C 82 % 1014,4 hPa 0,0 l/m 2 min 0 min 156 W/m 6,3 km/h (2 Bft)
04.02.2015 15:38 4,4 C 1,7 C 82 % 1014,4 hPa 0,0 l/m 2 min 0 min 150 W/m 6,3 km/h (2 Bft)
04.02.2015 15:40 4,4 C 1,7 C 82 % 1014,4 hPa 0,0 l/m 2 min 0 min 145 W/m 4,2 km/h (1 Bft)
04.02.2015 15:42 4,5 C 1,7 C 81 % 1014,4 hPa 0,0 l/m 2 min 0 min 140 W/m 4,2 km/h (1 Bft)
04.02.2015 15:44 4,4 C 1,7 C 81 % 1014,4 hPa 0,0 l/m 2 min 0 min 140 W/m 6,3 km/h (2 Bft)
04.02.2015 15:46 4,4 C 1,7 C 80 % 1014,4 hPa 0,0 l/m 2 min 0 min 140 W/m 6,3 km/h (2 Bft)
04.02.2015 15:48 4,4 C 1,7 C 80 % 1014,5 hPa 0,0 l/m 2 min 0 min 114 W/m 4,2 km/h (1 Bft)
04.02.2015 15:50 4,4 C 1,7 C 80 % 1014,5 hPa 0,0 l/m 2 min 0 min 117 W/m 8,4 km/h (2 Bft)
04.02.2015 15:52 4,3 C 2,2 C 80 % 1014,5 hPa 0,0 l/m 2 min 0 min 138 W/m 8,4 km/h (2 Bft)
04.02.2015 15:54 4,3 C 1,7 C 80 % 1014,5 hPa 0,0 l/m 2 min 0 min 133 W/m 8,4 km/h (2 Bft)
04.02.2015 15:56 4,2 C 1,7 C 80 % 1014,6 hPa 0,0 l/m 2 min 0 min 115 W/m 8,4 km/h (2 Bft)
04.02.2015 15:58 4,1 C 1,7 C 80 % 1014,6 hPa 0,0 l/m 0 min 0 min 89 W/m 8,4 km/h (2 Bft)
04.02.2015 16:00 4,1 C 1,7 C 80 % 1014,6 hPa 0,0 l/m 2 min 0 min 113 W/m 6,3 km/h (2 Bft)
04.02.2015 16:02 4,0 C 1,7 C 80 % 1014,7 hPa 0,0 l/m 2 min 0 min 104 W/m 4,2 km/h (1 Bft)
04.02.2015 16:04 3,9 C 1,7 C 80 % 1014,7 hPa 0,0 l/m 2 min 0 min 111 W/m 6,3 km/h (2 Bft)
04.02.2015 16:06 3,9 C 1,7 C 80 % 1014,6 hPa 0,0 l/m 2 min 0 min 115 W/m 4,2 km/h (1 Bft)
04.02.2015 16:08 3,8 C 1,7 C 80 % 1014,7 hPa 0,0 l/m 2 min 0 min 98 W/m 6,3 km/h (2 Bft)
04.02.2015 16:10 3,8 C 1,7 C 80 % 1014,7 hPa 0,0 l/m 0 min 0 min 72 W/m 4,2 km/h (1 Bft)
04.02.2015 16:12 3,7 C 2,2 C 80 % 1014,8 hPa 0,0 l/m 0 min 0 min 69 W/m 4,2 km/h (1 Bft)
04.02.2015 16:14 3,7 C 2,2 C 81 % 1014,9 hPa 0,0 l/m 0 min 0 min 68 W/m 4,2 km/h (1 Bft)
04.02.2015 16:16 3,7 C 1,7 C 81 % 1014,8 hPa 0,0 l/m 0 min 0 min 61 W/m 4,2 km/h (1 Bft)
04.02.2015 16:18 3,6 C 1,7 C 81 % 1014,8 hPa 0,0 l/m 0 min 0 min 53 W/m 6,3 km/h (2 Bft)
04.02.2015 16:20 3,6 C 1,7 C 81 % 1014,8 hPa 0,0 l/m 0 min 0 min 47 W/m 8,4 km/h (2 Bft)
04.02.2015 16:22 3,6 C 1,7 C 81 % 1014,8 hPa 0,0 l/m 0 min 0 min 43 W/m 6,3 km/h (2 Bft)
04.02.2015 16:24 3,5 C 1,7 C 81 % 1014,8 hPa 0,0 l/m 0 min 0 min 39 W/m 10,5 km/h (2 Bft)
04.02.2015 16:26 3,4 C 1,7 C 82 % 1014,8 hPa 0,0 l/m 0 min 0 min 34 W/m 6,3 km/h (2 Bft)
04.02.2015 16:28 3,4 C 1,7 C 82 % 1014,8 hPa 0,0 l/m 0 min 0 min 29 W/m 6,3 km/h (2 Bft)
04.02.2015 16:30 3,4 C 1,7 C 82 % 1014,8 hPa 0,0 l/m 0 min 0 min 26 W/m 8,4 km/h (2 Bft)
04.02.2015 16:32 3,3 C 1,7 C 82 % 1014,8 hPa 0,0 l/m 0 min 0 min 24 W/m 8,4 km/h (2 Bft)
04.02.2015 16:34 3,3 C 1,7 C 82 % 1014,8 hPa 0,0 l/m 0 min 0 min 22 W/m 6,3 km/h (2 Bft)
04.02.2015 16:36 3,3 C 1,7 C 82 % 1014,9 hPa 0,0 l/m 0 min 0 min 20 W/m 8,4 km/h (2 Bft)
04.02.2015 16:38 3,2 C 1,7 C 83 % 1014,9 hPa 0,0 l/m 0 min 0 min 19 W/m 6,3 km/h (2 Bft)
04.02.2015 16:40 3,2 C 1,7 C 83 % 1014,9 hPa 0,0 l/m 0 min 0 min 19 W/m 4,2 km/h (1 Bft)
04.02.2015 16:42 3,2 C 1,7 C 83 % 1014,9 hPa 0,0 l/m 0 min 0 min 19 W/m 6,3 km/h (2 Bft)
04.02.2015 16:44 3,2 C 1,7 C 83 % 1015,0 hPa 0,0 l/m 0 min 0 min 18 W/m 6,3 km/h (2 Bft)
04.02.2015 16:46 3,1 C 1,7 C 83 % 1015,0 hPa 0,0 l/m 0 min 0 min 18 W/m 6,3 km/h (2 Bft)
04.02.2015 16:48 3,1 C 1,7 C 83 % 1015,0 hPa 0,0 l/m 0 min 0 min 18 W/m 4,2 km/h (1 Bft)
04.02.2015 16:50 3,1 C 1,7 C 83 % 1015,0 hPa 0,0 l/m 0 min 0 min 19 W/m 4,2 km/h (1 Bft)
04.02.2015 16:52 3,1 C 1,7 C 83 % 1015,1 hPa 0,0 l/m 0 min 0 min 19 W/m 4,2 km/h (1 Bft)
04.02.2015 16:54 3,0 C 1,1 C 83 % 1015,1 hPa 0,0 l/m 0 min 0 min 19 W/m 4,2 km/h (1 Bft)
04.02.2015 16:56 3,0 C 1,7 C 83 % 1015,1 hPa 0,0 l/m 0 min 0 min 19 W/m 4,2 km/h (1 Bft)
04.02.2015 16:58 3,0 C 1,1 C 83 % 1015,2 hPa 0,0 l/m 0 min 0 min 18 W/m 2,1 km/h (1 Bft)
04.02.2015 17:00 3,0 C 1,1 C 84 % 1015,1 hPa 0,0 l/m 0 min 0 min 18 W/m 6,3 km/h (2 Bft)
04.02.2015 17:02 2,9 C 1,1 C 84 % 1015,2 hPa 0,0 l/m 0 min 0 min 18 W/m 6,3 km/h (2 Bft)
04.02.2015 17:04 2,9 C 1,1 C 84 % 1015,2 hPa 0,0 l/m 0 min 0 min 16 W/m 6,3 km/h (2 Bft)
04.02.2015 17:06 2,9 C 1,1 C 84 % 1015,1 hPa 0,0 l/m 0 min 0 min 12 W/m 6,3 km/h (2 Bft)
04.02.2015 17:08 2,9 C 1,1 C 84 % 1015,2 hPa 0,0 l/m 0 min 0 min 11 W/m 6,3 km/h (2 Bft)
04.02.2015 17:10 2,9 C 1,1 C 84 % 1015,2 hPa 0,0 l/m 0 min 0 min 10 W/m 2,1 km/h (1 Bft)
04.02.2015 17:12 2,9 C 1,1 C 84 % 1015,2 hPa 0,0 l/m 0 min 0 min 9 W/m 4,2 km/h (1 Bft)
04.02.2015 17:14 2,9 C 1,1 C 84 % 1015,2 hPa 0,0 l/m 0 min 0 min 9 W/m 4,2 km/h (1 Bft)
04.02.2015 17:16 2,8 C 0,6 C 84 % 1015,1 hPa 0,0 l/m 0 min 0 min 8 W/m 2,1 km/h (1 Bft)
04.02.2015 17:18 2,8 C 0,6 C 84 % 1015,2 hPa 0,0 l/m 0 min 0 min 7 W/m 4,2 km/h (1 Bft)
04.02.2015 17:20 2,8 C 0,6 C 83 % 1015,2 hPa 0,0 l/m 0 min 0 min 7 W/m 4,2 km/h (1 Bft)
04.02.2015 17:22 2,8 C 0,6 C 83 % 1015,2 hPa 0,0 l/m 0 min 0 min 7 W/m 4,2 km/h (1 Bft)
04.02.2015 17:24 2,7 C 0,6 C 83 % 1015,2 hPa 0,0 l/m 0 min 0 min 7 W/m 6,3 km/h (2 Bft)
04.02.2015 17:26 2,7 C 0,0 C 83 % 1015,3 hPa 0,0 l/m 0 min 0 min 7 W/m 6,3 km/h (2 Bft)
04.02.2015 17:28 2,7 C 0,0 C 83 % 1015,3 hPa 0,0 l/m 0 min 0 min 6 W/m 6,3 km/h (2 Bft)
04.02.2015 17:30 2,7 C 0,0 C 83 % 1015,4 hPa 0,0 l/m 0 min 0 min 5 W/m 4,2 km/h (1 Bft)
04.02.2015 17:32 2,7 C 0,0 C 83 % 1015,4 hPa 0,0 l/m 0 min 0 min 5 W/m 2,1 km/h (1 Bft)
04.02.2015 17:34 2,6 C 0,0 C 83 % 1015,4 hPa 0,0 l/m 0 min 0 min 5 W/m 2,1 km/h (1 Bft)
04.02.2015 17:36 2,6 C 0,0 C 83 % 1015,4 hPa 0,0 l/m 0 min 0 min 3 W/m 4,2 km/h (1 Bft)
04.02.2015 17:38 2,5 C -0,6 C 83 % 1015,4 hPa 0,0 l/m 0 min 0 min 0 W/m 4,2 km/h (1 Bft)
04.02.2015 17:40 2,5 C -0,6 C 83 % 1015,5 hPa 0,0 l/m 0 min 0 min 0 W/m 4,2 km/h (1 Bft)
04.02.2015 17:42 2,4 C -0,6 C 83 % 1015,5 hPa 0,0 l/m 0 min 0 min 0 W/m 4,2 km/h (1 Bft)
04.02.2015 17:44 2,4 C -0,6 C 83 % 1015,5 hPa 0,0 l/m 0 min 0 min 0 W/m 12,6 km/h (3 Bft)
04.02.2015 17:46 2,4 C 0,0 C 83 % 1015,5 hPa 0,0 l/m 0 min 0 min 0 W/m 12,6 km/h (3 Bft)
04.02.2015 17:48 2,3 C -0,6 C 83 % 1015,5 hPa 0,0 l/m 0 min 0 min 0 W/m 8,4 km/h (2 Bft)
04.02.2015 17:50 2,3 C -0,6 C 83 % 1015,5 hPa 0,0 l/m 0 min 0 min 0 W/m 6,3 km/h (2 Bft)
04.02.2015 17:52 2,2 C -0,6 C 83 % 1015,6 hPa 0,0 l/m 0 min 0 min 0 W/m 6,3 km/h (2 Bft)
04.02.2015 17:54 2,2 C -0,6 C 83 % 1015,6 hPa 0,0 l/m 0 min 0 min 0 W/m 6,3 km/h (2 Bft)
04.02.2015 17:56 2,2 C -0,6 C 83 % 1015,6 hPa 0,0 l/m 0 min 0 min 0 W/m 6,3 km/h (2 Bft)
04.02.2015 17:58 2,1 C -0,6 C 83 % 1015,6 hPa 0,0 l/m 0 min 0 min 0 W/m 6,3 km/h (2 Bft)
04.02.2015 18:00 2,1 C -1,1 C 83 % 1015,6 hPa 0,0 l/m 0 min 0 min 0 W/m 6,3 km/h (2 Bft)
04.02.2015 18:02 2,0 C -0,6 C 83 % 1015,6 hPa 0,0 l/m 0 min 0 min 0 W/m 12,6 km/h (3 Bft)
04.02.2015 18:06 1,9 C -1,1 C 83 % 1015,6 hPa 0,0 l/m 0 min 0 min 0 W/m 12,6 km/h (3 Bft)
04.02.2015 18:08 1,8 C -1,1 C 83 % 1015,7 hPa 0,0 l/m 0 min 0 min 0 W/m 4,2 km/h (1 Bft)
04.02.2015 18:10 1,8 C -1,1 C 83 % 1015,7 hPa 0,0 l/m 0 min 0 min 0 W/m 4,2 km/h (1 Bft)
04.02.2015 18:12 1,7 C -1,1 C 83 % 1015,7 hPa 0,0 l/m 0 min 0 min 0 W/m 2,1 km/h (1 Bft)
04.02.2015 18:14 1,7 C -1,7 C 83 % 1015,7 hPa 0,0 l/m 0 min 0 min 0 W/m 6,3 km/h (2 Bft)
04.02.2015 18:16 1,7 C -1,7 C 83 % 1015,7 hPa 0,0 l/m 0 min 0 min 0 W/m 6,3 km/h (2 Bft)
04.02.2015 18:18 1,6 C -1,7 C 83 % 1015,8 hPa 0,0 l/m 0 min 0 min 0 W/m 6,3 km/h (2 Bft)
04.02.2015 18:20 1,6 C -1,7 C 83 % 1015,8 hPa 0,0 l/m 0 min 0 min 0 W/m 4,2 km/h (1 Bft)
04.02.2015 18:22 1,5 C -1,7 C 83 % 1015,9 hPa 0,0 l/m 0 min 0 min 0 W/m 4,2 km/h (1 Bft)
04.02.2015 18:24 1,4 C -2,2 C 83 % 1015,9 hPa 0,0 l/m 0 min 0 min 0 W/m 4,2 km/h (1 Bft)
04.02.2015 18:26 1,4 C -2,2 C 83 % 1015,9 hPa 0,0 l/m 0 min 0 min 0 W/m 2,1 km/h (1 Bft)
04.02.2015 18:28 1,3 C -2,2 C 83 % 1015,9 hPa 0,0 l/m 0 min 0 min 0 W/m 4,2 km/h (1 Bft)
04.02.2015 18:30 1,3 C -2,2 C 83 % 1015,9 hPa 0,0 l/m 0 min 0 min 0 W/m 2,1 km/h (1 Bft)
04.02.2015 18:32 1,2 C -2,2 C 83 % 1016,0 hPa 0,0 l/m 0 min 0 min 0 W/m 2,1 km/h (1 Bft)
04.02.2015 18:34 1,1 C -2,2 C 83 % 1016,1 hPa 0,0 l/m 0 min 0 min 0 W/m 4,2 km/h (1 Bft)
04.02.2015 18:36 1,1 C -2,2 C 83 % 1016,1 hPa 0,0 l/m 0 min 0 min 0 W/m 4,2 km/h (1 Bft)
04.02.2015 18:38 1,0 C -2,2 C 83 % 1016,1 hPa 0,0 l/m 0 min 0 min 0 W/m 4,2 km/h (1 Bft)
04.02.2015 18:40 0,9 C -2,2 C 83 % 1016,2 hPa 0,0 l/m 0 min 0 min 0 W/m 4,2 km/h (1 Bft)
04.02.2015 18:42 0,9 C -2,2 C 83 % 1016,2 hPa 0,0 l/m 0 min 0 min 0 W/m 6,3 km/h (2 Bft)
04.02.2015 18:44 0,8 C -2,2 C 83 % 1016,3 hPa 0,0 l/m 0 min 0 min 0 W/m 6,3 km/h (2 Bft)
04.02.2015 18:46 0,7 C -2,2 C 84 % 1016,3 hPa 0,0 l/m 0 min 0 min 0 W/m 6,3 km/h (2 Bft)
04.02.2015 18:48 0,7 C -1,7 C 84 % 1016,3 hPa 0,0 l/m 0 min 0 min 0 W/m 6,3 km/h (2 Bft)
04.02.2015 18:50 0,6 C -1,7 C 84 % 1016,3 hPa 0,0 l/m 0 min 0 min 0 W/m 4,2 km/h (1 Bft)
04.02.2015 18:52 0,6 C -2,2 C 84 % 1016,3 hPa 0,0 l/m 0 min 0 min 0 W/m 4,2 km/h (1 Bft)
04.02.2015 18:54 0,5 C -2,2 C 85 % 1016,4 hPa 0,0 l/m 0 min 0 min 0 W/m 4,2 km/h (1 Bft)
04.02.2015 18:56 0,5 C -2,2 C 85 % 1016,4 hPa 0,0 l/m 0 min 0 min 0 W/m 4,2 km/h (1 Bft)
04.02.2015 18:58 0,5 C -2,2 C 85 % 1016,4 hPa 0,0 l/m 0 min 0 min 0 W/m 4,2 km/h (1 Bft)
04.02.2015 19:00 0,5 C -2,2 C 85 % 1016,4 hPa 0,0 l/m 0 min 0 min 0 W/m 6,3 km/h (2 Bft)
04.02.2015 19:02 0,5 C -2,8 C 85 % 1016,4 hPa 0,0 l/m 0 min 0 min 0 W/m 6,3 km/h (2 Bft)
04.02.2015 19:04 0,4 C -2,8 C 85 % 1016,4 hPa 0,0 l/m 0 min 0 min 0 W/m 6,3 km/h (2 Bft)
04.02.2015 19:06 0,4 C -2,8 C 85 % 1016,4 hPa 0,0 l/m 0 min 0 min 0 W/m 6,3 km/h (2 Bft)
04.02.2015 19:08 0,3 C -2,8 C 85 % 1016,5 hPa 0,0 l/m 0 min 0 min 0 W/m 4,2 km/h (1 Bft)
04.02.2015 19:10 0,3 C -2,8 C 85 % 1016,6 hPa 0,0 l/m 0 min 0 min 0 W/m 8,4 km/h (2 Bft)
04.02.2015 19:12 0,2 C -2,8 C 86 % 1016,6 hPa 0,0 l/m 0 min 0 min 0 W/m 8,4 km/h (2 Bft)
04.02.2015 19:14 0,2 C -2,8 C 86 % 1016,6 hPa 0,0 l/m 0 min 0 min 0 W/m 8,4 km/h (2 Bft)
04.02.2015 19:16 0,1 C -2,8 C 86 % 1016,7 hPa 0,0 l/m 0 min 0 min 0 W/m 10,5 km/h (2 Bft)
04.02.2015 19:18 0,1 C -2,8 C 86 % 1016,8 hPa 0,0 l/m 0 min 0 min 0 W/m 10,5 km/h (2 Bft)
04.02.2015 19:20 0,1 C -2,2 C 86 % 1016,8 hPa 0,0 l/m 0 min 0 min 0 W/m 12,6 km/h (3 Bft)
04.02.2015 19:22 0,0 C -2,2 C 86 % 1016,7 hPa 0,0 l/m 0 min 0 min 0 W/m 8,4 km/h (2 Bft)
04.02.2015 19:24 0,0 C -2,2 C 86 % 1016,8 hPa 0,0 l/m 0 min 0 min 0 W/m 8,4 km/h (2 Bft)
04.02.2015 19:26 -0,1 C -2,2 C 86 % 1016,8 hPa 0,0 l/m 0 min 0 min 0 W/m 8,4 km/h (2 Bft)
04.02.2015 19:28 -0,1 C -2,2 C 86 % 1016,8 hPa 0,0 l/m 0 min 0 min 0 W/m 8,4 km/h (2 Bft)
04.02.2015 19:30 -0,1 C -2,2 C 86 % 1016,8 hPa 0,0 l/m 0 min 0 min 0 W/m 6,3 km/h (2 Bft)
04.02.2015 19:32 -0,1 C -2,2 C 86 % 1016,9 hPa 0,0 l/m 0 min 0 min 0 W/m 8,4 km/h (2 Bft)
04.02.2015 19:34 -0,2 C -2,2 C 87 % 1016,9 hPa 0,0 l/m 0 min 0 min 0 W/m 8,4 km/h (2 Bft)
04.02.2015 19:36 -0,2 C -2,2 C 87 % 1017,0 hPa 0,0 l/m 0 min 0 min 0 W/m 6,3 km/h (2 Bft)
04.02.2015 19:38 -0,2 C -2,2 C 87 % 1017,0 hPa 0,0 l/m 0 min 0 min 0 W/m 8,4 km/h (2 Bft)
04.02.2015 19:40 -0,2 C -1,7 C 87 % 1017,0 hPa 0,0 l/m 0 min 0 min 0 W/m 6,3 km/h (2 Bft)
04.02.2015 19:42 -0,2 C -1,7 C 87 % 1017,0 hPa 0,0 l/m 0 min 0 min 0 W/m 6,3 km/h (2 Bft)
04.02.2015 19:44 -0,2 C -1,7 C 87 % 1017,0 hPa 0,0 l/m 0 min 0 min 0 W/m 8,4 km/h (2 Bft)
04.02.2015 19:46 -0,2 C -1,7 C 87 % 1017,0 hPa 0,0 l/m 0 min 0 min 0 W/m 6,3 km/h (2 Bft)
04.02.2015 19:48 -0,2 C -2,2 C 87 % 1017,0 hPa 0,0 l/m 0 min 0 min 0 W/m 6,3 km/h (2 Bft)
04.02.2015 19:50 -0,2 C -2,2 C 87 % 1017,0 hPa 0,0 l/m 0 min 0 min 0 W/m 6,3 km/h (2 Bft)
04.02.2015 19:52 -0,2 C -2,2 C 87 % 1017,0 hPa 0,0 l/m 0 min 0 min 0 W/m 6,3 km/h (2 Bft)
04.02.2015 19:54 -0,2 C -2,8 C 87 % 1017,0 hPa 0,0 l/m 0 min 0 min 0 W/m 4,2 km/h (1 Bft)
04.02.2015 19:56 -0,2 C -2,8 C 87 % 1017,1 hPa 0,0 l/m 0 min 0 min 0 W/m 6,3 km/h (2 Bft)
04.02.2015 19:58 -0,2 C -2,8 C 87 % 1017,1 hPa 0,0 l/m 0 min 0 min 0 W/m 6,3 km/h (2 Bft)
04.02.2015 20:00 -0,2 C -2,8 C 87 % 1017,0 hPa 0,0 l/m 0 min 0 min 0 W/m 4,2 km/h (1 Bft)
04.02.2015 20:02 -0,3 C -2,8 C 87 % 1017,1 hPa 0,0 l/m 0 min 0 min 0 W/m 4,2 km/h (1 Bft)
04.02.2015 20:04 -0,3 C -2,8 C 87 % 1017,1 hPa 0,0 l/m 0 min 0 min 0 W/m 4,2 km/h (1 Bft)
04.02.2015 20:06 -0,3 C -3,3 C 87 % 1017,1 hPa 0,0 l/m 0 min 0 min 0 W/m 4,2 km/h (1 Bft)
04.02.2015 20:08 -0,3 C -3,3 C 87 % 1017,1 hPa 0,0 l/m 0 min 0 min 0 W/m 4,2 km/h (1 Bft)
04.02.2015 20:10 -0,4 C -3,3 C 87 % 1017,1 hPa 0,0 l/m 0 min 0 min 0 W/m 4,2 km/h (1 Bft)
04.02.2015 20:12 -0,4 C -3,3 C 87 % 1017,1 hPa 0,0 l/m 0 min 0 min 0 W/m 4,2 km/h (1 Bft)
04.02.2015 20:14 -0,4 C -3,3 C 87 % 1017,1 hPa 0,0 l/m 0 min 0 min 0 W/m 4,2 km/h (1 Bft)
04.02.2015 20:16 -0,5 C -3,3 C 87 % 1017,2 hPa 0,0 l/m 0 min 0 min 0 W/m 4,2 km/h (1 Bft)
04.02.2015 20:18 -0,6 C -3,3 C 87 % 1017,3 hPa 0,0 l/m 0 min 0 min 0 W/m 4,2 km/h (1 Bft)
04.02.2015 20:20 -0,6 C -2,8 C 87 % 1017,3 hPa 0,0 l/m 0 min 0 min 0 W/m 6,3 km/h (2 Bft)
04.02.2015 20:22 -0,6 C -2,8 C 87 % 1017,3 hPa 0,0 l/m 0 min 0 min 0 W/m 6,3 km/h (2 Bft)
04.02.2015 20:24 -0,7 C -2,8 C 87 % 1017,4 hPa 0,0 l/m 0 min 0 min 0 W/m 6,3 km/h (2 Bft)
04.02.2015 20:26 -0,7 C -2,8 C 87 % 1017,5 hPa 0,0 l/m 0 min 0 min 0 W/m 4,2 km/h (1 Bft)
04.02.2015 20:28 -0,7 C -2,8 C 87 % 1017,5 hPa 0,0 l/m 0 min 0 min 0 W/m 4,2 km/h (1 Bft)
04.02.2015 20:30 -0,7 C -2,8 C 87 % 1017,5 hPa 0,0 l/m 0 min 0 min 0 W/m 4,2 km/h (1 Bft)
04.02.2015 20:32 -0,7 C -2,8 C 87 % 1017,5 hPa 0,0 l/m 0 min 0 min 0 W/m 4,2 km/h (1 Bft)
04.02.2015 20:34 -0,8 C -3,3 C 87 % 1017,5 hPa 0,0 l/m 0 min 0 min 0 W/m 4,2 km/h (1 Bft)
04.02.2015 20:36 -0,8 C -3,3 C 87 % 1017,5 hPa 0,0 l/m 0 min 0 min 0 W/m 4,2 km/h (1 Bft)
04.02.2015 20:38 -0,8 C -3,3 C 87 % 1017,6 hPa 0,0 l/m 0 min 0 min 0 W/m 2,1 km/h (1 Bft)
04.02.2015 20:40 -0,8 C -3,3 C 87 % 1017,7 hPa 0,0 l/m 0 min 0 min 0 W/m 2,1 km/h (1 Bft)
04.02.2015 20:42 -0,9 C -3,3 C 87 % 1017,8 hPa 0,0 l/m 0 min 0 min 0 W/m 2,1 km/h (1 Bft)
04.02.2015 20:44 -0,9 C -3,3 C 87 % 1017,7 hPa 0,0 l/m 0 min 0 min 0 W/m 4,2 km/h (1 Bft)
04.02.2015 20:46 -0,9 C -3,3 C 87 % 1017,8 hPa 0,0 l/m 0 min 0 min 0 W/m 6,3 km/h (2 Bft)
04.02.2015 20:48 -1,0 C -3,3 C 87 % 1017,8 hPa 0,0 l/m 0 min 0 min 0 W/m 6,3 km/h (2 Bft)
04.02.2015 20:50 -1,0 C -3,3 C 87 % 1017,8 hPa 0,0 l/m 0 min 0 min 0 W/m 6,3 km/h (2 Bft)
04.02.2015 20:52 -1,1 C -3,3 C 87 % 1017,9 hPa 0,0 l/m 0 min 0 min 0 W/m 8,4 km/h (2 Bft)
04.02.2015 20:54 -1,1 C -3,3 C 87 % 1017,9 hPa 0,0 l/m 0 min 0 min 0 W/m 6,3 km/h (2 Bft)
04.02.2015 20:56 -1,1 C -2,8 C 87 % 1017,9 hPa 0,0 l/m 0 min 0 min 0 W/m 8,4 km/h (2 Bft)
04.02.2015 20:58 -1,2 C -2,8 C 87 % 1017,9 hPa 0,0 l/m 0 min 0 min 0 W/m 16,7 km/h (3 Bft)
04.02.2015 21:00 -1,2 C -2,2 C 87 % 1018,0 hPa 0,0 l/m 0 min 0 min 0 W/m 14,6 km/h (3 Bft)
04.02.2015 21:02 -1,2 C -2,2 C 88 % 1018,0 hPa 0,0 l/m 0 min 0 min 0 W/m 12,6 km/h (3 Bft)
04.02.2015 21:04 -1,1 C -2,2 C 88 % 1018,0 hPa 0,0 l/m 0 min 0 min 0 W/m 10,5 km/h (2 Bft)
04.02.2015 21:06 -1,1 C -2,2 C 88 % 1018,1 hPa 0,0 l/m 0 min 0 min 0 W/m 8,4 km/h (2 Bft)
04.02.2015 21:08 -1,1 C -2,2 C 88 % 1018,0 hPa 0,0 l/m 0 min 0 min 0 W/m 8,4 km/h (2 Bft)
04.02.2015 21:10 -1,1 C -2,2 C 88 % 1018,0 hPa 0,0 l/m 0 min 0 min 0 W/m 12,6 km/h (3 Bft)
04.02.2015 21:12 -1,0 C -2,2 C 88 % 1018,0 hPa 0,0 l/m 0 min 0 min 0 W/m 16,7 km/h (3 Bft)
04.02.2015 21:14 -1,0 C -1,7 C 88 % 1018,1 hPa 0,0 l/m 0 min 0 min 0 W/m 14,6 km/h (3 Bft)
04.02.2015 21:16 -0,9 C -1,7 C 88 % 1018,1 hPa 0,0 l/m 0 min 0 min 0 W/m 14,6 km/h (3 Bft)
04.02.2015 21:18 -0,9 C -1,7 C 88 % 1018,2 hPa 0,0 l/m 0 min 0 min 0 W/m 12,6 km/h (3 Bft)
04.02.2015 21:20 -0,9 C -1,7 C 89 % 1018,2 hPa 0,0 l/m 0 min 0 min 0 W/m 14,6 km/h (3 Bft)
04.02.2015 21:22 -0,8 C -2,2 C 88 % 1018,2 hPa 0,0 l/m 0 min 0 min 0 W/m 14,6 km/h (3 Bft)
04.02.2015 21:24 -0,8 C -2,2 C 88 % 1018,2 hPa 0,0 l/m 0 min 0 min 0 W/m 14,6 km/h (3 Bft)
04.02.2015 21:26 -0,8 C -2,2 C 88 % 1018,2 hPa 0,0 l/m 0 min 0 min 0 W/m 12,6 km/h (3 Bft)
04.02.2015 21:28 -0,8 C -2,2 C 88 % 1018,2 hPa 0,0 l/m 0 min 0 min 0 W/m 10,5 km/h (2 Bft)
04.02.2015 21:30 -0,8 C -2,2 C 88 % 1018,3 hPa 0,0 l/m 0 min 0 min 0 W/m 12,6 km/h (3 Bft)
04.02.2015 21:32 -0,8 C -2,2 C 88 % 1018,3 hPa 0,0 l/m 0 min 0 min 0 W/m 10,5 km/h (2 Bft)
04.02.2015 21:34 -0,8 C -2,2 C 88 % 1018,3 hPa 0,0 l/m 0 min 0 min 0 W/m 10,5 km/h (2 Bft)
04.02.2015 21:36 -0,8 C -2,2 C 88 % 1018,4 hPa 0,0 l/m 0 min 0 min 0 W/m 10,5 km/h (2 Bft)
04.02.2015 21:38 -0,8 C -2,2 C 88 % 1018,4 hPa 0,0 l/m 0 min 0 min 0 W/m 8,4 km/h (2 Bft)
04.02.2015 21:40 -0,8 C -2,2 C 88 % 1018,4 hPa 0,0 l/m 0 min 0 min 0 W/m 12,6 km/h (3 Bft)
04.02.2015 21:42 -0,9 C -2,2 C 88 % 1018,4 hPa 0,0 l/m 0 min 0 min 0 W/m 10,5 km/h (2 Bft)
04.02.2015 21:44 -0,9 C -2,2 C 88 % 1018,5 hPa 0,0 l/m 0 min 0 min 0 W/m 8,4 km/h (2 Bft)
04.02.2015 21:46 -0,9 C -2,2 C 88 % 1018,5 hPa 0,0 l/m 0 min 0 min 0 W/m 8,4 km/h (2 Bft)
04.02.2015 21:48 -0,9 C -2,2 C 88 % 1018,5 hPa 0,0 l/m 0 min 0 min 0 W/m 10,5 km/h (2 Bft)
04.02.2015 21:50 -0,9 C -2,2 C 88 % 1018,5 hPa 0,0 l/m 0 min 0 min 0 W/m 8,4 km/h (2 Bft)
04.02.2015 21:52 -0,9 C -2,2 C 88 % 1018,6 hPa 0,0 l/m 0 min 0 min 0 W/m 8,4 km/h (2 Bft)
04.02.2015 21:54 -0,9 C -2,8 C 88 % 1018,5 hPa 0,0 l/m 0 min 0 min 0 W/m 10,5 km/h (2 Bft)
04.02.2015 21:56 -0,9 C -2,8 C 88 % 1018,6 hPa 0,0 l/m 0 min 0 min 0 W/m 8,4 km/h (2 Bft)
04.02.2015 21:58 -0,9 C -2,8 C 88 % 1018,6 hPa 0,0 l/m 0 min 0 min 0 W/m 8,4 km/h (2 Bft)
04.02.2015 22:00 -1,0 C -2,8 C 88 % 1018,5 hPa 0,0 l/m 0 min 0 min 0 W/m 8,4 km/h (2 Bft)
04.02.2015 22:02 -1,0 C -2,8 C 88 % 1018,5 hPa 0,0 l/m 0 min 0 min 0 W/m 8,4 km/h (2 Bft)
04.02.2015 22:04 -1,1 C -3,3 C 88 % 1018,5 hPa 0,0 l/m 0 min 0 min 0 W/m 8,4 km/h (2 Bft)
04.02.2015 22:06 -1,1 C -3,3 C 88 % 1018,6 hPa 0,0 l/m 0 min 0 min 0 W/m 10,5 km/h (2 Bft)
04.02.2015 22:08 -1,1 C -3,3 C 88 % 1018,5 hPa 0,0 l/m 0 min 0 min 0 W/m 8,4 km/h (2 Bft)
04.02.2015 22:10 -1,1 C -3,3 C 88 % 1018,5 hPa 0,0 l/m 0 min 0 min 0 W/m 8,4 km/h (2 Bft)
04.02.2015 22:12 -1,1 C -2,8 C 88 % 1018,6 hPa 0,0 l/m 0 min 0 min 0 W/m 6,3 km/h (2 Bft)
04.02.2015 22:14 -1,2 C -2,8 C 88 % 1018,6 hPa 0,0 l/m 0 min 0 min 0 W/m 8,4 km/h (2 Bft)
04.02.2015 22:16 -1,2 C -2,8 C 88 % 1018,6 hPa 0,0 l/m 0 min 0 min 0 W/m 10,5 km/h (2 Bft)
04.02.2015 22:18 -1,2 C -2,8 C 88 % 1018,7 hPa 0,0 l/m 0 min 0 min 0 W/m 8,4 km/h (2 Bft)
04.02.2015 22:20 -1,2 C -2,8 C 88 % 1018,7 hPa 0,0 l/m 0 min 0 min 0 W/m 8,4 km/h (2 Bft)
04.02.2015 22:22 -1,2 C -2,8 C 88 % 1018,6 hPa 0,0 l/m 0 min 0 min 0 W/m 8,4 km/h (2 Bft)
04.02.2015 22:24 -1,2 C -2,8 C 88 % 1018,6 hPa 0,0 l/m 0 min 0 min 0 W/m 6,3 km/h (2 Bft)
04.02.2015 22:26 -1,3 C -2,8 C 88 % 1018,6 hPa 0,0 l/m 0 min 0 min 0 W/m 8,4 km/h (2 Bft)
04.02.2015 22:28 -1,3 C -2,8 C 88 % 1018,6 hPa 0,0 l/m 0 min 0 min 0 W/m 6,3 km/h (2 Bft)
04.02.2015 22:30 -1,3 C -2,8 C 88 % 1018,6 hPa 0,0 l/m 0 min 0 min 0 W/m 6,3 km/h (2 Bft)
04.02.2015 22:32 -1,3 C -3,3 C 88 % 1018,6 hPa 0,0 l/m 0 min 0 min 0 W/m 4,2 km/h (1 Bft)
04.02.2015 22:34 -1,3 C -3,3 C 88 % 1018,7 hPa 0,0 l/m 0 min 0 min 0 W/m 6,3 km/h (2 Bft)
04.02.2015 22:36 -1,3 C -3,3 C 88 % 1018,6 hPa 0,0 l/m 0 min 0 min 0 W/m 6,3 km/h (2 Bft)
04.02.2015 22:38 -1,4 C -3,3 C 88 % 1018,6 hPa 0,0 l/m 0 min 0 min 0 W/m 6,3 km/h (2 Bft)
04.02.2015 22:40 -1,4 C -3,9 C 88 % 1018,6 hPa 0,0 l/m 0 min 0 min 0 W/m 4,2 km/h (1 Bft)
04.02.2015 22:42 -1,4 C -3,9 C 88 % 1018,6 hPa 0,0 l/m 0 min 0 min 0 W/m 4,2 km/h (1 Bft)
04.02.2015 22:44 -1,5 C -3,9 C 88 % 1018,6 hPa 0,0 l/m 0 min 0 min 0 W/m 4,2 km/h (1 Bft)
04.02.2015 22:46 -1,5 C -3,9 C 88 % 1018,7 hPa 0,0 l/m 0 min 0 min 0 W/m 6,3 km/h (2 Bft)
04.02.2015 22:48 -1,6 C -3,3 C 88 % 1018,7 hPa 0,0 l/m 0 min 0 min 0 W/m 6,3 km/h (2 Bft)
04.02.2015 22:50 -1,6 C -3,3 C 88 % 1018,7 hPa 0,0 l/m 0 min 0 min 0 W/m 6,3 km/h (2 Bft)
04.02.2015 22:52 -1,6 C -3,3 C 88 % 1018,7 hPa 0,0 l/m 0 min 0 min 0 W/m 4,2 km/h (1 Bft)
04.02.2015 22:54 -1,6 C -3,3 C 88 % 1018,7 hPa 0,0 l/m 0 min 0 min 0 W/m 6,3 km/h (2 Bft)
04.02.2015 22:56 -1,6 C -3,9 C 88 % 1018,7 hPa 0,0 l/m 0 min 0 min 0 W/m 4,2 km/h (1 Bft)
04.02.2015 22:58 -1,7 C -3,9 C 88 % 1018,8 hPa 0,0 l/m 0 min 0 min 0 W/m 8,4 km/h (2 Bft)
04.02.2015 23:00 -1,7 C -3,3 C 88 % 1018,8 hPa 0,0 l/m 0 min 0 min 0 W/m 8,4 km/h (2 Bft)
04.02.2015 23:02 -1,7 C -3,3 C 88 % 1018,8 hPa 0,0 l/m 0 min 0 min 0 W/m 8,4 km/h (2 Bft)
04.02.2015 23:04 -1,8 C -3,3 C 88 % 1018,8 hPa 0,0 l/m 0 min 0 min 0 W/m 8,4 km/h (2 Bft)
04.02.2015 23:06 -1,8 C -3,3 C 88 % 1018,9 hPa 0,0 l/m 0 min 0 min 0 W/m 8,4 km/h (2 Bft)
04.02.2015 23:08 -1,8 C -3,3 C 88 % 1018,9 hPa 0,0 l/m 0 min 0 min 0 W/m 6,3 km/h (2 Bft)
04.02.2015 23:10 -1,8 C -3,3 C 89 % 1018,9 hPa 0,0 l/m 0 min 0 min 0 W/m 6,3 km/h (2 Bft)
04.02.2015 23:12 -1,8 C -3,3 C 89 % 1018,9 hPa 0,0 l/m 0 min 0 min 0 W/m 6,3 km/h (2 Bft)
04.02.2015 23:14 -1,8 C -3,3 C 89 % 1019,0 hPa 0,0 l/m 0 min 0 min 0 W/m 6,3 km/h (2 Bft)
04.02.2015 23:16 -1,8 C -3,3 C 89 % 1019,0 hPa 0,0 l/m 0 min 0 min 0 W/m 8,4 km/h (2 Bft)
04.02.2015 23:18 -1,8 C -3,3 C 89 % 1019,1 hPa 0,0 l/m 0 min 0 min 0 W/m 6,3 km/h (2 Bft)
04.02.2015 23:20 -1,8 C -3,3 C 89 % 1019,1 hPa 0,0 l/m 0 min 0 min 0 W/m 8,4 km/h (2 Bft)
04.02.2015 23:22 -1,9 C -3,3 C 89 % 1019,1 hPa 0,0 l/m 0 min 0 min 0 W/m 6,3 km/h (2 Bft)
04.02.2015 23:24 -1,9 C -3,3 C 89 % 1019,1 hPa 0,0 l/m 0 min 0 min 0 W/m 6,3 km/h (2 Bft)
04.02.2015 23:26 -1,9 C -3,3 C 89 % 1019,1 hPa 0,0 l/m 0 min 0 min 0 W/m 4,2 km/h (1 Bft)
04.02.2015 23:28 -1,9 C -3,3 C 89 % 1019,1 hPa 0,0 l/m 0 min 0 min 0 W/m 6,3 km/h (2 Bft)
04.02.2015 23:30 -1,9 C -3,3 C 89 % 1019,0 hPa 0,0 l/m 0 min 0 min 0 W/m 6,3 km/h (2 Bft)
04.02.2015 23:32 -1,9 C -3,3 C 89 % 1019,0 hPa 0,0 l/m 0 min 0 min 0 W/m 6,3 km/h (2 Bft)
04.02.2015 23:34 -1,9 C -3,3 C 89 % 1019,0 hPa 0,0 l/m 0 min 0 min 0 W/m 4,2 km/h (1 Bft)
04.02.2015 23:36 -1,9 C -3,3 C 89 % 1019,1 hPa 0,0 l/m 0 min 0 min 0 W/m 6,3 km/h (2 Bft)
04.02.2015 23:38 -1,9 C -3,3 C 89 % 1019,2 hPa 0,0 l/m 0 min 0 min 0 W/m 6,3 km/h (2 Bft)
04.02.2015 23:40 -1,9 C -3,3 C 89 % 1019,2 hPa 0,0 l/m 0 min 0 min 0 W/m 6,3 km/h (2 Bft)
04.02.2015 23:42 -1,9 C -3,3 C 89 % 1019,2 hPa 0,0 l/m 0 min 0 min 0 W/m 4,2 km/h (1 Bft)
04.02.2015 23:44 -2,0 C -3,9 C 89 % 1019,2 hPa 0,0 l/m 0 min 0 min 0 W/m 4,2 km/h (1 Bft)
04.02.2015 23:46 -2,0 C -3,9 C 89 % 1019,2 hPa 0,0 l/m 0 min 0 min 0 W/m 4,2 km/h (1 Bft)
04.02.2015 23:48 -2,0 C -3,9 C 89 % 1019,3 hPa 0,0 l/m 0 min 0 min 0 W/m 4,2 km/h (1 Bft)
04.02.2015 23:50 -2,0 C -3,9 C 89 % 1019,2 hPa 0,0 l/m 0 min 0 min 0 W/m 4,2 km/h (1 Bft)
04.02.2015 23:52 -2,1 C -3,9 C 89 % 1019,1 hPa 0,0 l/m 0 min 0 min 0 W/m 4,2 km/h (1 Bft)
04.02.2015 23:54 -2,1 C -3,9 C 89 % 1019,2 hPa 0,0 l/m 0 min 0 min 0 W/m 4,2 km/h (1 Bft)
04.02.2015 23:56 -2,1 C -3,9 C 89 % 1019,2 hPa 0,0 l/m 0 min 0 min 0 W/m 4,2 km/h (1 Bft)
04.02.2015 23:58 -2,1 C -3,9 C 89 % 1019,1 hPa 0,0 l/m 0 min 0 min 0 W/m 6,3 km/h (2 Bft)
_ Min-Zeit 07:06 05:56 15:46 00:00 - - - - 04:50
Minimum _ -2,6 C -3,9 C 80 % 1008,9 hPa - - - - 2,1 km/h (1 Bft)
_ Max-Zeit 15:40 14:18 11:22 23:48 12:40 08:20 00:00 13:36 00:44
Maximum _ 4,5 C 3,3 C 97 % 1019,3 hPa 0,2 l/m 2 min 0 min 411 W/m 18,8 km/h
N-NO (3 Bft)
Durchschnitt _ 0,1 C -1,2 C 90 % 1013,8 hPa #0,2 l/m #4:00 h #0 min. 129 W/m 6,7 km/h (2 Bft)
© 2015 W. Hausmann